Time,TemperatureF,DewpointF,PressureIn,WindDirection,WindDirectionDegrees,WindSpeedMPH,WindSpeedGustMPH,Humidity,HourlyPrecipIn,Conditions,Clouds,dailyrainin,SoftwareType,DateUTC
2013-02-15 00:00:00,63.9,62.5,30.09,North,354,0.7,10.6,95,0.00,,---,0.00,VWS V14.01,2013-02-15 05:00:00,
2013-02-15 00:01:00,64.2,62.7,30.04,NW,304,0.0,2.5,95,0.00,,---,0.00,VWS V14.01,2013-02-15 05:01:00,
2013-02-15 00:02:00,64.3,62.8,30.04,NNW,335,1.1,2.5,95,0.00,,---,0.00,VWS V14.01,2013-02-15 05:02:00,
2013-02-15 00:03:00,64.3,62.8,30.04,NNW,345,2.1,3.2,95,0.00,,---,0.00,VWS V14.01,2013-02-15 05:03:00,
2013-02-15 00:04:00,64.3,62.8,30.03,North,349,0.6,3.2,95,0.00,,---,0.00,VWS V14.01,2013-02-15 05:04:00,
2013-02-15 00:05:00,63.9,62.4,30.09,NNW,343,0.0,1.7,95,0.00,,---,0.00,VWS V14.01,2013-02-15 05:05:00,
2013-02-15 00:06:00,64.4,62.9,30.03,WNW,300,1.0,3.2,95,0.00,,---,0.00,VWS V14.01,2013-02-15 05:06:00,
2013-02-15 00:07:00,64.3,62.8,30.03,NNW,330,0.0,3.2,95,0.00,,---,0.00,VWS V14.01,2013-02-15 05:07:00,
2013-02-15 00:08:00,64.3,62.8,30.03,NNW,330,0.0,3.2,95,0.00,,---,0.00,VWS V14.01,2013-02-15 05:08:00,
2013-02-15 00:09:00,64.3,62.8,30.03,WNW,302,0.0,3.2,95,0.00,,---,0.00,VWS V14.01,2013-02-15 05:09:00,
2013-02-15 00:10:00,64.1,62.7,30.09,East,82,0.0,0.0,95,0.00,,---,0.00,VWS V14.01,2013-02-15 05:10:00,
2013-02-15 00:11:00,64.5,63.0,30.03,NW,325,2.2,3.2,95,0.00,,---,0.00,VWS V14.01,2013-02-15 05:11:00,
2013-02-15 00:12:00,64.4,62.9,30.03,North,354,2.1,3.2,95,0.00,,---,0.00,VWS V14.01,2013-02-15 05:12:00,
2013-02-15 00:13:00,64.3,62.8,30.03,NNW,338,1.5,3.2,95,0.00,,---,0.00,VWS V14.01,2013-02-15 05:13:00,
2013-02-15 00:15:00,64.2,62.7,30.09,NE,56,0.0,1.5,95,0.00,,---,0.00,VWS V14.01,2013-02-15 05:15:00,
2013-02-15 00:20:00,64.1,62.6,30.08,NE,35,0.0,0.0,95,0.00,,---,0.00,VWS V14.01,2013-02-15 05:20:00,
2013-02-15 00:25:00,64.3,62.8,30.09,NNE,13,0.0,0.0,95,0.00,,---,0.00,VWS V14.01,2013-02-15 05:25:00,
2013-02-15 00:30:00,64.4,62.9,30.08,NNE,13,0.0,0.0,95,0.00,,---,0.00,VWS V14.01,2013-02-15 05:30:00,
2013-02-15 00:31:00,64.2,62.7,30.08,NNE,13,0.0,0.0,95,0.00,,---,0.00,VWS V14.01,2013-02-15 05:31:00,
2013-02-15 00:35:00,64.4,62.9,30.09,West,281,0.7,4.2,95,0.00,,---,0.00,VWS V14.01,2013-02-15 05:35:00,
2013-02-15 00:36:00,64.2,62.7,30.09,West,281,0.0,0.7,95,0.00,,---,0.00,VWS V14.01,2013-02-15 05:36:00,
2013-02-15 00:40:00,64.4,62.9,30.08,East,86,0.0,1.6,95,0.00,,---,0.00,VWS V14.01,2013-02-15 05:40:00,
2013-02-15 00:41:00,64.4,62.9,30.08,East,86,0.0,1.6,95,0.00,,---,0.00,VWS V14.01,2013-02-15 05:41:00,
2013-02-15 00:45:00,64.4,62.9,30.08,East,86,3.4,3.4,95,0.00,,---,0.00,VWS V14.01,2013-02-15 05:45:00,
2013-02-15 00:46:00,64.6,63.1,30.08,East,93,3.4,3.9,95,0.00,,---,0.00,VWS V14.01,2013-02-15 05:46:00,
2013-02-15 00:50:00,64.7,63.2,30.08,NE,34,0.0,0.0,95,0.00,,---,0.00,VWS V14.01,2013-02-15 05:50:00,
2013-02-15 00:51:00,64.7,63.2,30.08,NE,34,0.0,0.0,95,0.00,,---,0.00,VWS V14.01,2013-02-15 05:51:00,
2013-02-15 00:55:00,64.8,63.3,30.08,ESE,121,0.0,0.0,95,0.00,,---,0.00,VWS V14.01,2013-02-15 05:55:00,
2013-02-15 00:56:00,64.8,63.3,30.08,SE,124,3.2,3.2,95,0.00,,---,0.00,VWS V14.01,2013-02-15 05:56:00,
2013-02-15 01:01:00,65.1,63.6,30.08,SE,125,2.9,4.7,95,0.00,,---,0.00,VWS V14.01,2013-02-15 06:01:00,
2013-02-15 01:06:00,65.3,63.7,30.08,SE,132,2.8,6.8,95,0.00,,---,0.00,VWS V14.01,2013-02-15 06:06:00,
2013-02-15 01:11:00,65.3,63.6,30.08,SE,139,4.0,4.9,94,0.00,,---,0.00,VWS V14.01,2013-02-15 06:11:00,
2013-02-15 01:12:00,65.4,63.7,30.08,East,80,5.2,5.3,94,0.00,,---,0.00,VWS V14.01,2013-02-15 06:12:00,
2013-02-15 01:16:00,65.1,63.1,30.08,East,83,8.3,8.3,93,0.00,,---,0.00,VWS V14.01,2013-02-15 06:16:00,
2013-02-15 01:17:00,65.0,62.9,30.08,ENE,77,9.6,12.4,93,0.00,,---,0.00,VWS V14.01,2013-02-15 06:17:00,
2013-02-15 01:21:00,65.3,63.0,30.07,NE,44,1.3,8.7,92,0.00,,---,0.00,VWS V14.01,2013-02-15 06:21:00,
2013-02-15 01:22:00,65.2,63.0,30.07,ENE,60,0.0,2.5,92,0.00,,---,0.00,VWS V14.01,2013-02-15 06:22:00,
2013-02-15 01:26:00,65.6,63.4,30.07,ESE,103,3.2,4.8,92,0.00,,---,0.00,VWS V14.01,2013-02-15 06:26:00,
2013-02-15 01:27:00,65.8,63.5,30.07,East,96,8.9,8.9,92,0.00,,---,0.00,VWS V14.01,2013-02-15 06:27:00,
2013-02-15 01:31:00,65.7,63.2,30.08,ENE,75,3.6,7.8,92,0.00,,---,0.00,VWS V14.01,2013-02-15 06:31:00,
2013-02-15 01:32:00,65.8,63.3,30.07,SE,146,4.5,10.2,92,0.00,,---,0.00,VWS V14.01,2013-02-15 06:32:00,
2013-02-15 01:36:00,65.9,63.5,30.07,NNE,15,0.0,4.5,92,0.00,,---,0.00,VWS V14.01,2013-02-15 06:36:00,
2013-02-15 01:37:00,66.0,63.4,30.07,NE,56,5.5,7.0,91,0.00,,---,0.00,VWS V14.01,2013-02-15 06:37:00,
2013-02-15 01:41:00,66.1,63.4,30.07,East,82,1.5,7.1,91,0.00,,---,0.00,VWS V14.01,2013-02-15 06:41:00,
2013-02-15 01:42:00,66.1,63.4,30.07,ENE,70,1.9,7.1,91,0.00,,---,0.00,VWS V14.01,2013-02-15 06:42:00,
2013-02-15 01:47:00,66.3,63.5,30.07,East,89,6.0,6.5,91,0.00,,---,0.00,VWS V14.01,2013-02-15 06:47:00,
2013-02-15 01:52:00,66.4,63.6,30.07,ENE,72,6.0,7.3,91,0.00,,---,0.00,VWS V14.01,2013-02-15 06:52:00,
2013-02-15 01:57:00,66.4,63.5,30.06,ESE,103,2.2,9.3,90,0.00,,---,0.00,VWS V14.01,2013-02-15 06:57:00,
2013-02-15 02:02:00,66.6,63.8,30.06,South,183,3.5,3.5,91,0.00,,---,0.00,VWS V14.01,2013-02-15 07:02:00,
2013-02-15 02:03:00,66.7,63.9,30.05,East,87,2.9,4.8,91,0.00,,---,0.00,VWS V14.01,2013-02-15 07:03:00,
2013-02-15 02:07:00,66.8,63.9,30.06,ESE,118,7.4,8.9,90,0.00,,---,0.00,VWS V14.01,2013-02-15 07:07:00,
2013-02-15 02:08:00,66.8,63.9,30.06,ESE,103,7.3,7.9,90,0.00,,---,0.00,VWS V14.01,2013-02-15 07:08:00,
2013-02-15 02:12:00,66.8,63.8,30.05,ESE,107,4.5,9.1,90,0.00,,---,0.00,VWS V14.01,2013-02-15 07:12:00,
2013-02-15 02:13:00,67.0,64.1,30.05,ENE,68,5.2,5.5,90,0.00,,---,0.00,VWS V14.01,2013-02-15 07:13:00,
2013-02-15 02:17:00,66.9,63.9,30.05,East,89,3.7,6.2,90,0.00,,---,0.00,VWS V14.01,2013-02-15 07:17:00,
2013-02-15 02:18:00,66.8,63.8,30.05,East,83,5.4,7.3,90,0.00,,---,0.00,VWS V14.01,2013-02-15 07:18:00,
2013-02-15 02:22:00,66.9,63.8,30.06,NE,56,1.7,7.0,90,0.00,,---,0.00,VWS V14.01,2013-02-15 07:22:00,
2013-02-15 02:23:00,66.9,63.7,30.06,NE,55,3.7,7.0,89,0.00,,---,0.00,VWS V14.01,2013-02-15 07:23:00,
2013-02-15 02:27:00,66.9,63.7,30.06,SSE,153,0.0,2.3,90,0.00,,---,0.00,VWS V14.01,2013-02-15 07:27:00,
2013-02-15 02:28:00,67.0,63.8,30.06,SSE,153,0.0,0.0,90,0.00,,---,0.00,VWS V14.01,2013-02-15 07:28:00,
2013-02-15 02:32:00,67.0,63.8,30.06,ENE,66,3.9,7.8,89,0.00,,---,0.00,VWS V14.01,2013-02-15 07:32:00,
2013-02-15 02:33:00,67.0,63.8,30.06,SE,136,2.9,3.2,90,0.00,,---,0.00,VWS V14.01,2013-02-15 07:33:00,
2013-02-15 02:37:00,67.0,63.8,30.06,ENE,73,4.1,4.8,90,0.00,,---,0.00,VWS V14.01,2013-02-15 07:37:00,
2013-02-15 02:38:00,67.1,63.9,30.06,East,98,2.5,4.8,90,0.00,,---,0.00,VWS V14.01,2013-02-15 07:38:00,
2013-02-15 02:42:00,67.2,64.1,30.07,NNW,339,0.4,1.8,90,0.00,,---,0.00,VWS V14.01,2013-02-15 07:42:00,
2013-02-15 02:43:00,67.1,64.0,30.07,ESE,104,1.5,1.8,90,0.00,,---,0.00,VWS V14.01,2013-02-15 07:43:00,
2013-02-15 02:47:00,67.3,64.1,30.06,ENE,63,6.9,10.7,90,0.00,,---,0.00,VWS V14.01,2013-02-15 07:47:00,
2013-02-15 02:48:00,67.2,64.0,30.06,South,176,8.8,10.7,89,0.00,,---,0.00,VWS V14.01,2013-02-15 07:48:00,
2013-02-15 02:49:00,67.2,64.0,30.06,SE,139,8.1,9.3,89,0.00,,---,0.00,VWS V14.01,2013-02-15 07:49:00,
2013-02-15 02:52:00,67.2,64.0,30.06,ESE,122,4.0,5.3,90,0.00,,---,0.00,VWS V14.01,2013-02-15 07:52:00,
2013-02-15 02:53:00,67.0,63.8,30.06,ENE,63,5.3,5.3,89,0.00,,---,0.00,VWS V14.01,2013-02-15 07:53:00,
2013-02-15 02:58:00,67.0,63.9,30.06,SE,125,4.5,7.2,90,0.00,,---,0.00,VWS V14.01,2013-02-15 07:58:00,
2013-02-15 02:59:00,66.9,63.9,30.06,NE,45,3.4,5.9,90,0.00,,---,0.00,VWS V14.01,2013-02-15 07:59:00,
2013-02-15 03:03:00,66.7,63.9,30.06,SE,124,0.0,5.5,91,0.00,,---,0.00,VWS V14.01,2013-02-15 08:03:00,
2013-02-15 03:04:00,66.8,64.0,30.06,SE,124,0.0,0.0,91,0.00,,---,0.00,VWS V14.01,2013-02-15 08:04:00,
2013-02-15 03:08:00,66.7,64.0,30.06,SE,124,0.0,0.0,91,0.00,,---,0.00,VWS V14.01,2013-02-15 08:08:00,
2013-02-15 03:09:00,66.8,64.1,30.06,SE,124,0.0,0.0,91,0.00,,---,0.00,VWS V14.01,2013-02-15 08:09:00,
2013-02-15 03:13:00,66.7,64.1,30.07,SE,124,0.0,0.0,91,0.00,,---,0.00,VWS V14.01,2013-02-15 08:13:00,
2013-02-15 03:14:00,66.8,64.2,30.07,SE,124,0.0,0.0,91,0.00,,---,0.00,VWS V14.01,2013-02-15 08:14:00,
2013-02-15 03:18:00,66.9,64.3,30.07,North,359,0.0,0.0,92,0.00,,---,0.00,VWS V14.01,2013-02-15 08:18:00,
2013-02-15 03:19:00,66.9,64.3,30.06,North,359,0.0,0.0,92,0.00,,---,0.00,VWS V14.01,2013-02-15 08:19:00,
2013-02-15 03:23:00,67.1,64.6,30.07,NE,51,0.0,0.0,92,0.00,,---,0.00,VWS V14.01,2013-02-15 08:23:00,
2013-02-15 03:24:00,67.0,64.5,30.06,NE,51,0.0,0.0,92,0.00,,---,0.00,VWS V14.01,2013-02-15 08:24:00,
2013-02-15 03:28:00,66.9,64.4,30.06,SE,136,0.0,5.3,92,0.00,,---,0.00,VWS V14.01,2013-02-15 08:28:00,
2013-02-15 03:29:00,66.9,64.4,30.06,ESE,122,1.0,1.7,92,0.00,,---,0.00,VWS V14.01,2013-02-15 08:29:00,
2013-02-15 03:30:00,67.0,64.5,30.07,SE,128,2.5,2.9,92,0.00,,---,0.00,VWS V14.01,2013-02-15 08:30:00,
2013-02-15 03:33:00,66.8,64.4,30.06,East,90,5.6,5.6,92,0.00,,---,0.00,VWS V14.01,2013-02-15 08:33:00,
2013-02-15 03:35:00,66.7,64.4,30.06,South,172,2.5,7.6,92,0.00,,---,0.00,VWS V14.01,2013-02-15 08:35:00,
2013-02-15 03:38:00,66.7,64.5,30.06,East,100,3.0,3.6,92,0.00,,---,0.00,VWS V14.01,2013-02-15 08:38:00,
2013-02-15 03:40:00,66.7,64.5,30.06,East,86,2.4,2.4,93,0.00,,---,0.00,VWS V14.01,2013-02-15 08:40:00,
2013-02-15 03:43:00,66.7,64.5,30.05,NE,45,4.9,4.9,93,0.00,,---,0.00,VWS V14.01,2013-02-15 08:43:00,
2013-02-15 03:44:00,66.7,64.6,30.05,ESE,122,7.2,9.8,93,0.00,,---,0.00,VWS V14.01,2013-02-15 08:44:00,
2013-02-15 03:45:00,66.8,64.7,30.05,ENE,60,3.0,4.1,93,0.00,,---,0.00,VWS V14.01,2013-02-15 08:45:00,
2013-02-15 03:46:00,66.5,64.4,30.05,NE,49,4.7,5.4,93,0.00,,---,0.00,VWS V14.01,2013-02-15 08:46:00,
2013-02-15 03:48:00,66.5,64.4,30.06,NE,37,2.0,5.1,93,0.00,,---,0.00,VWS V14.01,2013-02-15 08:48:00,
2013-02-15 03:49:00,66.6,64.5,30.06,NNE,24,0.0,5.1,93,0.00,,---,0.00,VWS V14.01,2013-02-15 08:49:00,
2013-02-15 03:50:00,66.6,64.5,30.06,NNE,24,0.0,0.0,93,0.00,,---,0.00,VWS V14.01,2013-02-15 08:50:00,
2013-02-15 03:51:00,66.6,64.5,30.06,NNE,24,0.0,0.0,93,0.00,,---,0.00,VWS V14.01,2013-02-15 08:51:00,
2013-02-15 03:53:00,66.7,64.6,30.06,NNE,24,0.0,0.0,93,0.00,,---,0.00,VWS V14.01,2013-02-15 08:53:00,
2013-02-15 03:54:00,66.6,64.5,30.06,NNE,24,0.0,0.0,93,0.00,,---,0.00,VWS V14.01,2013-02-15 08:54:00,
2013-02-15 03:55:00,66.6,64.5,30.06,ENE,70,2.7,3.0,93,0.00,,---,0.00,VWS V14.01,2013-02-15 08:55:00,
2013-02-15 03:56:00,66.5,64.4,30.05,ENE,65,5.0,5.3,93,0.00,,---,0.00,VWS V14.01,2013-02-15 08:56:00,
2013-02-15 03:58:00,66.5,64.4,30.05,NNE,14,0.0,1.6,93,0.00,,---,0.00,VWS V14.01,2013-02-15 08:58:00,
2013-02-15 03:59:00,66.5,64.4,30.05,NNE,14,0.0,1.6,93,0.00,,---,0.00,VWS V14.01,2013-02-15 08:59:00,
2013-02-15 04:00:00,66.4,64.3,30.05,ENE,68,0.0,0.9,93,0.00,,---,0.00,VWS V14.01,2013-02-15 09:00:00,
2013-02-15 04:01:00,66.6,64.6,30.06,East,100,0.7,6.4,93,0.00,,---,0.00,VWS V14.01,2013-02-15 09:01:00,
2013-02-15 04:04:00,66.3,64.2,30.06,East,100,0.0,0.0,93,0.00,,---,0.00,VWS V14.01,2013-02-15 09:04:00,
2013-02-15 04:05:00,66.4,64.4,30.06,East,96,0.3,1.2,93,0.00,,---,0.00,VWS V14.01,2013-02-15 09:05:00,
2013-02-15 04:06:00,66.5,64.5,30.06,East,93,0.0,0.0,93,0.00,,---,0.00,VWS V14.01,2013-02-15 09:06:00,
2013-02-15 04:09:00,66.4,64.4,30.06,East,96,0.0,0.0,93,0.00,,---,0.00,VWS V14.01,2013-02-15 09:09:00,
2013-02-15 04:10:00,66.4,64.4,30.06,East,100,3.5,3.5,93,0.00,,---,0.00,VWS V14.01,2013-02-15 09:10:00,
2013-02-15 04:11:00,66.7,64.7,30.05,NE,49,0.0,0.0,93,0.00,,---,0.00,VWS V14.01,2013-02-15 09:11:00,
2013-02-15 04:14:00,66.4,64.4,30.06,East,79,0.0,1.1,93,0.00,,---,0.00,VWS V14.01,2013-02-15 09:14:00,
2013-02-15 04:15:00,66.4,64.4,30.06,East,79,0.0,0.0,93,0.00,,---,0.00,VWS V14.01,2013-02-15 09:15:00,
2013-02-15 04:16:00,66.3,64.3,30.06,ENE,62,1.3,3.2,93,0.00,,---,0.00,VWS V14.01,2013-02-15 09:16:00,
2013-02-15 04:19:00,66.4,64.4,30.05,ESE,111,0.0,1.2,93,0.00,,---,0.00,VWS V14.01,2013-02-15 09:19:00,
2013-02-15 04:20:00,66.5,64.6,30.05,ESE,111,0.0,0.0,94,0.00,,---,0.00,VWS V14.01,2013-02-15 09:20:00,
2013-02-15 04:22:00,66.4,64.5,30.06,ESE,111,0.0,0.0,94,0.00,,---,0.00,VWS V14.01,2013-02-15 09:22:00,
2013-02-15 04:24:00,66.4,64.5,30.06,East,101,3.7,4.3,94,0.00,,---,0.00,VWS V14.01,2013-02-15 09:24:00,
2013-02-15 04:25:00,66.4,64.5,30.06,ESE,114,0.0,0.0,94,0.00,,---,0.00,VWS V14.01,2013-02-15 09:25:00,
2013-02-15 04:27:00,66.4,64.5,30.05,ESE,114,0.0,0.0,94,0.00,,---,0.00,VWS V14.01,2013-02-15 09:27:00,
2013-02-15 04:29:00,66.6,64.7,30.05,ESE,105,1.5,2.9,94,0.00,,---,0.00,VWS V14.01,2013-02-15 09:29:00,
2013-02-15 04:30:00,66.4,64.5,30.05,ESE,122,0.0,1.3,94,0.00,,---,0.00,VWS V14.01,2013-02-15 09:30:00,
2013-02-15 04:32:00,66.4,64.5,30.05,ESE,122,0.0,0.0,94,0.00,,---,0.00,VWS V14.01,2013-02-15 09:32:00,
2013-02-15 04:34:00,66.4,64.6,30.05,ESE,115,1.2,8.8,94,0.00,,---,0.00,VWS V14.01,2013-02-15 09:34:00,
2013-02-15 04:35:00,66.4,64.6,30.05,SE,143,3.7,7.3,94,0.00,,---,0.00,VWS V14.01,2013-02-15 09:35:00,
2013-02-15 04:36:00,66.4,64.6,30.06,NE,49,4.7,7.3,94,0.00,,---,0.00,VWS V14.01,2013-02-15 09:36:00,
2013-02-15 04:37:00,66.4,64.6,30.06,ESE,114,0.0,5.3,94,0.00,,---,0.00,VWS V14.01,2013-02-15 09:37:00,
2013-02-15 04:39:00,66.4,64.6,30.06,ESE,114,0.0,0.0,94,0.00,,---,0.00,VWS V14.01,2013-02-15 09:39:00,
2013-02-15 04:40:00,66.4,64.6,30.06,East,83,5.2,5.2,94,0.00,,---,0.00,VWS V14.01,2013-02-15 09:40:00,
2013-02-15 04:41:00,66.3,64.5,30.06,SE,125,2.9,5.2,94,0.00,,---,0.00,VWS V14.01,2013-02-15 09:41:00,
2013-02-15 04:42:00,66.4,64.6,30.06,East,98,3.1,3.1,94,0.00,,---,0.00,VWS V14.01,2013-02-15 09:42:00,
2013-02-15 04:44:00,66.2,64.4,30.06,East,98,0.3,1.4,94,0.00,,---,0.00,VWS V14.01,2013-02-15 09:44:00,
2013-02-15 04:46:00,66.3,64.5,30.06,ENE,70,0.0,4.5,94,0.00,,---,0.00,VWS V14.01,2013-02-15 09:46:00,
2013-02-15 04:47:00,66.3,64.6,30.06,East,89,1.6,5.2,94,0.00,,---,0.00,VWS V14.01,2013-02-15 09:47:00,
2013-02-15 04:49:00,66.1,64.4,30.06,East,101,1.0,1.7,94,0.00,,---,0.00,VWS V14.01,2013-02-15 09:49:00,
2013-02-15 04:51:00,66.2,64.5,30.07,ESE,121,2.9,6.1,94,0.00,,---,0.00,VWS V14.01,2013-02-15 09:51:00,
2013-02-15 04:52:00,66.1,64.4,30.07,SE,142,6.3,7.4,94,0.00,,---,0.00,VWS V14.01,2013-02-15 09:52:00,
2013-02-15 04:55:00,66.2,64.6,30.07,East,93,3.5,7.2,94,0.00,,---,0.00,VWS V14.01,2013-02-15 09:55:00,
2013-02-15 04:56:00,66.2,64.6,30.07,SE,138,4.8,6.5,95,0.00,,---,0.00,VWS V14.01,2013-02-15 09:56:00,
2013-02-15 04:58:00,66.3,64.7,30.07,ESE,117,0.0,3.3,94,0.00,,---,0.00,VWS V14.01,2013-02-15 09:58:00,
2013-02-15 05:00:00,66.3,64.7,30.08,ESE,117,0.0,0.0,94,0.00,,---,0.00,VWS V14.01,2013-02-15 10:00:00,
2013-02-15 05:01:00,66.5,64.8,30.08,North,4,0.0,3.6,94,0.00,,---,0.00,VWS V14.01,2013-02-15 10:01:00,
2013-02-15 05:03:00,66.3,64.6,30.07,North,4,0.0,0.0,94,0.00,,---,0.00,VWS V14.01,2013-02-15 10:03:00,
2013-02-15 05:05:00,66.5,64.8,30.07,North,4,0.0,0.0,94,0.00,,---,0.00,VWS V14.01,2013-02-15 10:05:00,
2013-02-15 05:06:00,66.6,64.9,30.08,North,4,0.0,0.0,94,0.00,,---,0.00,VWS V14.01,2013-02-15 10:06:00,
2013-02-15 05:08:00,66.4,64.7,30.07,North,4,0.0,0.0,94,0.00,,---,0.00,VWS V14.01,2013-02-15 10:08:00,
2013-02-15 05:10:00,66.5,64.8,30.07,North,4,0.0,0.0,94,0.00,,---,0.00,VWS V14.01,2013-02-15 10:10:00,
2013-02-15 05:11:00,66.4,64.7,30.07,North,4,0.0,0.0,94,0.00,,---,0.00,VWS V14.01,2013-02-15 10:11:00,
2013-02-15 05:13:00,66.5,64.8,30.07,North,4,0.0,0.0,94,0.00,,---,0.00,VWS V14.01,2013-02-15 10:13:00,
2013-02-15 05:15:00,66.2,64.5,30.07,North,4,0.0,0.0,94,0.00,,---,0.00,VWS V14.01,2013-02-15 10:15:00,
2013-02-15 05:16:00,66.4,64.7,30.07,North,4,0.0,0.0,94,0.00,,---,0.00,VWS V14.01,2013-02-15 10:16:00,
2013-02-15 05:18:00,66.4,64.7,30.08,North,4,0.0,0.0,94,0.00,,---,0.00,VWS V14.01,2013-02-15 10:18:00,
2013-02-15 05:20:00,66.4,64.8,30.07,North,4,0.0,0.0,94,0.00,,---,0.00,VWS V14.01,2013-02-15 10:20:00,
2013-02-15 05:21:00,66.3,64.7,30.07,North,4,0.0,0.0,94,0.00,,---,0.00,VWS V14.01,2013-02-15 10:21:00,
2013-02-15 05:22:00,66.3,64.7,30.07,North,4,0.0,0.0,94,0.00,,---,0.00,VWS V14.01,2013-02-15 10:22:00,
2013-02-15 05:24:00,66.4,64.8,30.07,SSE,167,2.3,3.4,94,0.00,,---,0.00,VWS V14.01,2013-02-15 10:24:00,
2013-02-15 05:25:00,66.3,64.7,30.07,ESE,118,1.6,4.5,94,0.00,,---,0.00,VWS V14.01,2013-02-15 10:25:00,
2013-02-15 05:26:00,66.4,64.8,30.07,ESE,114,1.1,1.6,94,0.00,,---,0.00,VWS V14.01,2013-02-15 10:26:00,
2013-02-15 05:27:00,66.3,64.7,30.07,SE,131,3.1,3.6,95,0.00,,---,0.00,VWS V14.01,2013-02-15 10:27:00,
2013-02-15 05:29:00,66.3,64.7,30.07,East,82,2.0,3.4,95,0.00,,---,0.00,VWS V14.01,2013-02-15 10:29:00,
2013-02-15 05:30:00,66.4,64.8,30.07,SSE,153,3.5,4.5,95,0.00,,---,0.00,VWS V14.01,2013-02-15 10:30:00,
2013-02-15 05:31:00,66.4,64.8,30.08,East,84,3.0,5.3,95,0.00,,---,0.00,VWS V14.01,2013-02-15 10:31:00,
2013-02-15 05:32:00,66.3,64.7,30.08,ENE,58,4.0,7.0,94,0.00,,---,0.00,VWS V14.01,2013-02-15 10:32:00,
2013-02-15 05:34:00,66.4,64.8,30.08,SE,134,3.2,5.5,94,0.00,,---,0.00,VWS V14.01,2013-02-15 10:34:00,
2013-02-15 05:35:00,66.3,64.7,30.08,SE,135,6.3,6.3,95,0.00,,---,0.00,VWS V14.01,2013-02-15 10:35:00,
2013-02-15 05:36:00,66.2,64.6,30.08,ESE,112,3.3,5.0,95,0.00,,---,0.00,VWS V14.01,2013-02-15 10:36:00,
2013-02-15 05:37:00,66.1,64.5,30.08,SE,135,0.0,5.0,95,0.00,,---,0.00,VWS V14.01,2013-02-15 10:37:00,
2013-02-15 05:39:00,66.1,64.5,30.08,SE,142,3.0,3.7,95,0.00,,---,0.00,VWS V14.01,2013-02-15 10:39:00,
2013-02-15 05:41:00,66.0,64.4,30.08,ESE,112,0.0,4.4,95,0.00,,---,0.00,VWS V14.01,2013-02-15 10:41:00,
2013-02-15 05:42:00,66.2,64.7,30.08,SE,142,0.0,1.8,95,0.00,,---,0.00,VWS V14.01,2013-02-15 10:42:00,
2013-02-15 05:44:00,66.0,64.5,30.07,SE,142,0.0,0.0,95,0.00,,---,0.00,VWS V14.01,2013-02-15 10:44:00,
2013-02-15 05:46:00,66.1,64.6,30.07,SE,128,1.9,5.1,95,0.00,,---,0.00,VWS V14.01,2013-02-15 10:46:00,
2013-02-15 05:47:00,66.1,64.6,30.07,East,91,3.4,3.4,95,0.00,,---,0.00,VWS V14.01,2013-02-15 10:47:00,
2013-02-15 05:49:00,66.0,64.5,30.08,SE,129,0.0,0.0,95,0.00,,---,0.00,VWS V14.01,2013-02-15 10:49:00,
2013-02-15 05:51:00,65.9,64.3,30.08,ESE,107,0.9,2.6,95,0.00,,---,0.00,VWS V14.01,2013-02-15 10:51:00,
2013-02-15 05:52:00,65.9,64.3,30.08,East,84,0.0,0.0,95,0.00,,---,0.00,VWS V14.01,2013-02-15 10:52:00,
2013-02-15 05:54:00,66.0,64.4,30.08,ENE,63,0.0,1.1,95,0.00,,---,0.00,VWS V14.01,2013-02-15 10:54:00,
2013-02-15 05:56:00,66.0,64.5,30.08,ESE,115,1.8,2.0,95,0.00,,---,0.00,VWS V14.01,2013-02-15 10:56:00,
2013-02-15 05:57:00,65.9,64.4,30.08,ESE,115,0.0,0.0,95,0.00,,---,0.00,VWS V14.01,2013-02-15 10:57:00,
2013-02-15 05:59:00,65.8,64.3,30.08,ESE,107,1.7,5.0,95,0.00,,---,0.00,VWS V14.01,2013-02-15 10:59:00,
2013-02-15 06:01:00,65.8,64.3,30.08,NNE,30,0.6,2.4,95,0.00,,---,0.00,VWS V14.01,2013-02-15 11:01:00,
2013-02-15 06:02:00,66.0,64.5,30.08,East,96,0.4,2.2,95,0.00,,---,0.00,VWS V14.01,2013-02-15 11:02:00,
2013-02-15 06:04:00,65.9,64.4,30.08,SE,141,1.7,1.7,95,0.00,,---,0.00,VWS V14.01,2013-02-15 11:04:00,
2013-02-15 06:06:00,65.9,64.4,30.08,ESE,118,3.5,5.8,95,0.00,,---,0.00,VWS V14.01,2013-02-15 11:06:00,
2013-02-15 06:08:00,66.0,64.5,30.08,SE,127,3.5,3.7,95,0.00,,---,0.00,VWS V14.01,2013-02-15 11:08:00,
2013-02-15 06:09:00,65.9,64.4,30.08,ESE,117,4.1,4.3,95,0.00,,---,0.00,VWS V14.01,2013-02-15 11:09:00,
2013-02-15 06:11:00,65.8,64.3,30.08,East,83,2.1,3.7,95,0.00,,---,0.00,VWS V14.01,2013-02-15 11:11:00,
2013-02-15 06:13:00,65.9,64.4,30.08,East,98,0.9,3.1,95,0.10,,---,0.10,VWS V14.01,2013-02-15 11:13:00,
2013-02-15 06:14:00,66.0,64.5,30.08,East,91,3.3,3.4,95,0.10,,---,0.10,VWS V14.01,2013-02-15 11:14:00,
2013-02-15 06:16:00,65.9,64.4,30.08,ESE,117,3.1,6.2,95,0.10,,---,0.10,VWS V14.01,2013-02-15 11:16:00,
2013-02-15 06:17:00,65.9,64.4,30.08,ENE,75,3.6,6.2,95,0.10,,---,0.10,VWS V14.01,2013-02-15 11:17:00,
2013-02-15 06:18:00,66.0,64.5,30.08,East,90,0.0,1.6,95,0.10,,---,0.10,VWS V14.01,2013-02-15 11:18:00,
2013-02-15 06:19:00,66.0,64.5,30.08,ESE,105,3.4,3.5,95,0.10,,---,0.10,VWS V14.01,2013-02-15 11:19:00,
2013-02-15 06:22:00,66.0,64.5,30.09,ENE,75,0.9,2.5,95,0.10,,---,0.10,VWS V14.01,2013-02-15 11:22:00,
2013-02-15 06:23:00,66.2,64.7,30.09,East,93,3.9,5.2,95,0.10,,---,0.10,VWS V14.01,2013-02-15 11:23:00,
2013-02-15 06:24:00,66.1,64.6,30.09,ESE,110,2.0,3.7,95,0.10,,---,0.10,VWS V14.01,2013-02-15 11:24:00,
2013-02-15 06:27:00,66.0,64.5,30.08,SSE,153,2.2,4.2,95,0.10,,---,0.10,VWS V14.01,2013-02-15 11:27:00,
2013-02-15 06:28:00,66.1,64.6,30.08,SSE,153,0.4,0.4,95,0.10,,---,0.10,VWS V14.01,2013-02-15 11:28:00,
2013-02-15 06:29:00,66.1,64.6,30.08,SE,128,2.7,5.5,95,0.10,,---,0.10,VWS V14.01,2013-02-15 11:29:00,
2013-02-15 06:32:00,66.0,64.5,30.09,East,87,0.0,5.3,95,0.10,,---,0.10,VWS V14.01,2013-02-15 11:32:00,
2013-02-15 06:34:00,66.0,64.5,30.09,SSE,167,5.2,5.7,95,0.10,,---,0.10,VWS V14.01,2013-02-15 11:34:00,
2013-02-15 06:35:00,66.0,64.5,30.09,SE,139,5.0,8.4,95,0.10,,---,0.10,VWS V14.01,2013-02-15 11:35:00,
2013-02-15 06:37:00,66.0,64.5,30.09,SSE,166,7.9,8.1,95,0.10,,---,0.10,VWS V14.01,2013-02-15 11:37:00,
2013-02-15 06:38:00,66.3,64.8,30.09,South,190,5.0,7.7,95,0.10,,---,0.10,VWS V14.01,2013-02-15 11:38:00,
2013-02-15 06:39:00,66.1,64.6,30.09,South,174,2.6,7.0,95,0.10,,---,0.10,VWS V14.01,2013-02-15 11:39:00,
2013-02-15 06:40:00,66.2,64.7,30.09,SSE,163,3.8,6.5,95,0.10,,---,0.10,VWS V14.01,2013-02-15 11:40:00,
2013-02-15 06:42:00,66.1,64.5,30.09,South,190,5.0,5.0,95,0.10,,---,0.10,VWS V14.01,2013-02-15 11:42:00,
2013-02-15 06:43:00,66.4,64.8,30.09,East,87,1.1,5.0,95,0.10,,---,0.10,VWS V14.01,2013-02-15 11:43:00,
2013-02-15 06:44:00,66.3,64.7,30.09,East,87,0.0,0.0,95,0.10,,---,0.10,VWS V14.01,2013-02-15 11:44:00,
2013-02-15 06:45:00,66.1,64.5,30.09,SE,143,6.8,7.3,95,0.10,,---,0.10,VWS V14.01,2013-02-15 11:45:00,
2013-02-15 06:47:00,66.3,64.7,30.09,East,79,0.7,4.7,95,0.10,,---,0.10,VWS V14.01,2013-02-15 11:47:00,
2013-02-15 06:48:00,66.3,64.7,30.09,South,179,4.8,4.8,95,0.10,,---,0.10,VWS V14.01,2013-02-15 11:48:00,
2013-02-15 06:49:00,66.2,64.6,30.09,SE,138,5.0,6.2,95,0.10,,---,0.10,VWS V14.01,2013-02-15 11:49:00,
2013-02-15 06:50:00,66.2,64.6,30.09,SE,131,3.9,7.4,95,0.10,,---,0.10,VWS V14.01,2013-02-15 11:50:00,
2013-02-15 06:52:00,66.3,64.7,30.09,South,177,5.2,8.6,95,0.10,,---,0.10,VWS V14.01,2013-02-15 11:52:00,
2013-02-15 06:53:00,66.4,64.8,30.09,South,172,1.4,2.1,95,0.10,,---,0.10,VWS V14.01,2013-02-15 11:53:00,
2013-02-15 06:54:00,66.3,64.7,30.09,SE,141,2.5,4.8,95,0.10,,---,0.10,VWS V14.01,2013-02-15 11:54:00,
2013-02-15 06:55:00,66.3,64.7,30.09,SSE,158,0.0,3.7,95,0.10,,---,0.10,VWS V14.01,2013-02-15 11:55:00,
2013-02-15 06:57:00,66.3,64.7,30.09,ESE,114,0.0,0.0,95,0.10,,---,0.10,VWS V14.01,2013-02-15 11:57:00,
2013-02-15 06:58:00,66.4,64.8,30.09,SE,132,3.7,4.0,95,0.10,,---,0.10,VWS V14.01,2013-02-15 11:58:00,
2013-02-15 06:59:00,66.4,64.8,30.09,SE,124,0.0,4.0,95,0.10,,---,0.10,VWS V14.01,2013-02-15 11:59:00,
2013-02-15 07:00:00,66.3,64.7,30.09,SE,127,4.7,4.9,95,0.10,,---,0.10,VWS V14.01,2013-02-15 12:00:00,
2013-02-15 07:02:00,66.3,64.7,30.09,South,170,2.4,3.7,95,0.10,,---,0.10,VWS V14.01,2013-02-15 12:02:00,
2013-02-15 07:03:00,66.3,64.7,30.09,SSE,166,1.6,1.6,95,0.10,,---,0.10,VWS V14.01,2013-02-15 12:03:00,
2013-02-15 07:04:00,66.4,64.8,30.09,ESE,114,0.0,1.2,95,0.10,,---,0.10,VWS V14.01,2013-02-15 12:04:00,
2013-02-15 07:05:00,66.3,64.7,30.09,ESE,114,0.0,1.2,95,0.10,,---,0.10,VWS V14.01,2013-02-15 12:05:00,
2013-02-15 07:08:00,66.4,64.8,30.09,ESE,114,0.0,0.0,94,0.10,,---,0.10,VWS V14.01,2013-02-15 12:08:00,
2013-02-15 07:09:00,66.7,65.1,30.09,ESE,114,0.0,0.0,94,0.10,,---,0.10,VWS V14.01,2013-02-15 12:09:00,
2013-02-15 07:10:00,66.4,64.8,30.09,ESE,114,0.0,0.0,94,0.10,,---,0.10,VWS V14.01,2013-02-15 12:10:00,
2013-02-15 07:13:00,66.5,64.8,30.09,SE,145,1.8,4.5,94,0.10,,---,0.10,VWS V14.01,2013-02-15 12:13:00,
2013-02-15 07:14:00,66.4,64.8,30.09,ESE,114,0.0,0.0,94,0.00,,---,0.10,VWS V14.01,2013-02-15 12:14:00,
2013-02-15 07:15:00,66.4,64.8,30.09,ESE,114,0.0,0.0,94,0.00,,---,0.10,VWS V14.01,2013-02-15 12:15:00,
2013-02-15 07:18:00,66.3,64.6,30.09,SSE,156,2.9,5.3,94,0.00,,---,0.10,VWS V14.01,2013-02-15 12:18:00,
2013-02-15 07:19:00,66.3,64.7,30.09,ESE,103,1.6,3.2,94,0.00,,---,0.10,VWS V14.01,2013-02-15 12:19:00,
2013-02-15 07:20:00,66.2,64.6,30.09,SE,135,0.0,0.9,94,0.00,,---,0.10,VWS V14.01,2013-02-15 12:20:00,
2013-02-15 07:23:00,66.4,64.8,30.10,SE,135,0.0,0.0,94,0.00,,---,0.10,VWS V14.01,2013-02-15 12:23:00,
2013-02-15 07:24:00,66.3,64.7,30.10,SE,135,0.0,0.0,94,0.00,,---,0.10,VWS V14.01,2013-02-15 12:24:00,
2013-02-15 07:26:00,66.4,64.8,30.10,SE,135,0.0,0.0,94,0.00,,---,0.10,VWS V14.01,2013-02-15 12:26:00,
2013-02-15 07:28:00,66.3,64.7,30.10,SE,132,1.9,1.9,94,0.00,,---,0.10,VWS V14.01,2013-02-15 12:28:00,
2013-02-15 07:29:00,66.4,64.8,30.10,South,184,2.1,3.6,94,0.00,,---,0.10,VWS V14.01,2013-02-15 12:29:00,
2013-02-15 07:31:00,66.4,64.8,30.10,SE,134,0.0,0.0,94,0.00,,---,0.10,VWS V14.01,2013-02-15 12:31:00,
2013-02-15 07:33:00,66.4,64.8,30.10,ENE,68,0.0,0.0,94,0.00,,---,0.10,VWS V14.01,2013-02-15 12:33:00,
2013-02-15 07:34:00,66.4,64.8,30.10,ENE,68,0.0,0.0,94,0.00,,---,0.10,VWS V14.01,2013-02-15 12:34:00,
2013-02-15 07:35:00,66.3,64.7,30.10,ENE,68,1.6,1.6,94,0.00,,---,0.10,VWS V14.01,2013-02-15 12:35:00,
2013-02-15 07:36:00,66.4,64.7,30.10,ENE,62,0.0,0.7,94,0.00,,---,0.10,VWS V14.01,2013-02-15 12:36:00,
2013-02-15 07:38:00,66.5,64.8,30.10,ENE,62,0.0,0.0,94,0.00,,---,0.10,VWS V14.01,2013-02-15 12:38:00,
2013-02-15 07:39:00,66.4,64.7,30.10,ENE,62,0.0,0.0,94,0.00,,---,0.10,VWS V14.01,2013-02-15 12:39:00,
2013-02-15 07:40:00,66.5,64.8,30.10,ENE,62,0.0,0.0,94,0.00,,---,0.10,VWS V14.01,2013-02-15 12:40:00,
2013-02-15 07:41:00,66.4,64.7,30.10,ENE,62,0.0,0.0,94,0.00,,---,0.10,VWS V14.01,2013-02-15 12:41:00,
2013-02-15 07:44:00,66.6,64.9,30.09,ESE,112,0.0,3.1,94,0.00,,---,0.10,VWS V14.01,2013-02-15 12:44:00,
2013-02-15 07:45:00,66.7,64.9,30.09,SE,139,2.9,3.1,94,0.00,,---,0.10,VWS V14.01,2013-02-15 12:45:00,
2013-02-15 07:46:00,66.4,64.7,30.09,South,176,1.5,3.9,94,0.00,,---,0.10,VWS V14.01,2013-02-15 12:46:00,
2013-02-15 07:49:00,66.6,64.8,30.09,SE,143,4.2,4.4,94,0.00,,---,0.10,VWS V14.01,2013-02-15 12:49:00,
2013-02-15 07:50:00,66.4,64.6,30.09,SSE,150,1.1,3.0,94,0.00,,---,0.10,VWS V14.01,2013-02-15 12:50:00,
2013-02-15 07:51:00,66.6,64.8,30.09,South,181,1.5,4.0,94,0.00,,---,0.10,VWS V14.01,2013-02-15 12:51:00,
2013-02-15 07:54:00,66.7,64.9,30.09,South,181,0.0,0.0,94,0.00,,---,0.10,VWS V14.01,2013-02-15 12:54:00,
2013-02-15 07:55:00,66.8,65.1,30.09,South,181,0.0,0.0,94,0.00,,---,0.10,VWS V14.01,2013-02-15 12:55:00,
2013-02-15 07:56:00,66.8,65.0,30.09,South,181,0.0,0.0,94,0.00,,---,0.10,VWS V14.01,2013-02-15 12:56:00,
2013-02-15 07:59:00,66.8,65.0,30.09,South,181,0.0,0.0,94,0.00,,---,0.10,VWS V14.01,2013-02-15 12:59:00,
2013-02-15 08:00:00,66.8,65.0,30.09,South,181,0.0,0.0,94,0.00,,---,0.10,VWS V14.01,2013-02-15 13:00:00,
2013-02-15 08:01:00,66.9,65.1,30.09,South,181,0.0,0.0,94,0.00,,---,0.10,VWS V14.01,2013-02-15 13:01:00,
2013-02-15 08:04:00,67.0,65.1,30.10,South,181,0.0,0.0,94,0.00,,---,0.10,VWS V14.01,2013-02-15 13:04:00,
2013-02-15 08:05:00,67.0,65.1,30.10,South,181,0.0,0.0,94,0.00,,---,0.10,VWS V14.01,2013-02-15 13:05:00,
2013-02-15 08:06:00,67.0,65.1,30.10,South,181,0.0,0.0,94,0.00,,---,0.10,VWS V14.01,2013-02-15 13:06:00,
2013-02-15 08:09:00,67.0,65.1,30.10,South,181,0.0,0.0,94,0.00,,---,0.10,VWS V14.01,2013-02-15 13:09:00,
2013-02-15 08:10:00,66.9,64.9,30.10,South,181,0.0,0.0,93,0.00,,---,0.10,VWS V14.01,2013-02-15 13:10:00,
2013-02-15 08:11:00,66.8,64.9,30.10,South,181,0.0,0.0,94,0.00,,---,0.10,VWS V14.01,2013-02-15 13:11:00,
2013-02-15 08:14:00,66.8,64.7,30.10,SSE,166,4.2,4.6,93,0.00,,---,0.10,VWS V14.01,2013-02-15 13:14:00,
2013-02-15 08:15:00,66.7,64.7,30.10,SE,131,0.6,1.5,93,0.00,,---,0.10,VWS V14.01,2013-02-15 13:15:00,
2013-02-15 08:16:00,66.8,64.7,30.10,SE,131,0.0,0.0,93,0.00,,---,0.10,VWS V14.01,2013-02-15 13:16:00,
2013-02-15 08:19:00,66.7,64.6,30.10,South,186,7.6,7.6,93,0.00,,---,0.10,VWS V14.01,2013-02-15 13:19:00,
2013-02-15 08:20:00,66.8,64.7,30.10,South,184,3.7,5.5,93,0.00,,---,0.10,VWS V14.01,2013-02-15 13:20:00,
2013-02-15 08:21:00,66.8,64.7,30.10,SSE,165,2.5,5.5,93,0.00,,---,0.10,VWS V14.01,2013-02-15 13:21:00,
2013-02-15 08:25:00,67.1,64.9,30.10,South,179,2.9,5.5,93,0.00,,---,0.10,VWS V14.01,2013-02-15 13:25:00,
2013-02-15 08:26:00,67.0,64.8,30.10,SSE,163,1.3,2.7,93,0.00,,---,0.10,VWS V14.01,2013-02-15 13:26:00,
2013-02-15 08:30:00,67.4,65.2,30.10,South,174,0.9,4.0,93,0.00,,---,0.10,VWS V14.01,2013-02-15 13:30:00,
2013-02-15 08:31:00,67.4,65.2,30.10,South,180,2.9,5.6,92,0.00,,---,0.10,VWS V14.01,2013-02-15 13:31:00,
2013-02-15 08:35:00,67.4,65.0,30.10,SE,141,0.0,3.0,92,0.00,,---,0.10,VWS V14.01,2013-02-15 13:35:00,
2013-02-15 08:36:00,67.4,65.1,30.10,SE,141,0.0,0.0,92,0.00,,---,0.10,VWS V14.01,2013-02-15 13:36:00,
2013-02-15 08:40:00,67.8,65.5,30.10,SE,141,0.0,0.0,92,0.00,,---,0.10,VWS V14.01,2013-02-15 13:40:00,
2013-02-15 08:41:00,67.7,65.4,30.10,SE,141,0.0,0.0,92,0.00,,---,0.10,VWS V14.01,2013-02-15 13:41:00,
2013-02-15 08:42:00,67.8,65.4,30.10,SE,141,0.0,0.0,92,0.00,,---,0.10,VWS V14.01,2013-02-15 13:42:00,
2013-02-15 08:45:00,67.9,65.5,30.10,SE,141,0.0,0.0,92,0.00,,---,0.10,VWS V14.01,2013-02-15 13:45:00,
2013-02-15 08:46:00,67.9,65.4,30.10,South,180,3.0,3.6,92,0.00,,---,0.10,VWS V14.01,2013-02-15 13:46:00,
2013-02-15 08:47:00,68.0,65.5,30.10,SE,143,1.9,1.9,92,0.00,,---,0.10,VWS V14.01,2013-02-15 13:47:00,
2013-02-15 08:50:00,68.0,65.5,30.10,SSE,166,2.5,4.8,92,0.00,,---,0.10,VWS V14.01,2013-02-15 13:50:00,
2013-02-15 08:51:00,67.8,65.3,30.10,SSW,201,2.9,3.5,92,0.00,,---,0.10,VWS V14.01,2013-02-15 13:51:00,
2013-02-15 08:52:00,67.9,65.3,30.10,SSE,152,0.0,2.3,92,0.00,,---,0.10,VWS V14.01,2013-02-15 13:52:00,
2013-02-15 08:55:00,67.9,65.3,30.10,SE,141,0.0,0.0,92,0.00,,---,0.10,VWS V14.01,2013-02-15 13:55:00,
2013-02-15 08:56:00,68.0,65.4,30.10,SE,141,0.0,0.0,92,0.00,,---,0.10,VWS V14.01,2013-02-15 13:56:00,
2013-02-15 08:57:00,68.0,65.4,30.10,SE,141,0.0,0.0,91,0.00,,---,0.10,VWS V14.01,2013-02-15 13:57:00,
2013-02-15 09:00:00,67.9,65.3,30.10,SE,141,0.0,0.0,91,0.00,,---,0.10,VWS V14.01,2013-02-15 14:00:00,
2013-02-15 09:01:00,67.9,65.3,30.10,South,170,1.7,2.9,91,0.00,,---,0.10,VWS V14.01,2013-02-15 14:01:00,
2013-02-15 09:02:00,68.0,65.4,30.09,SE,141,3.2,3.2,92,0.00,,---,0.10,VWS V14.01,2013-02-15 14:02:00,
2013-02-15 09:05:00,68.1,65.5,30.09,SE,146,2.7,2.7,91,0.00,,---,0.10,VWS V14.01,2013-02-15 14:05:00,
2013-02-15 09:06:00,68.2,65.6,30.09,SSE,167,3.2,3.7,91,0.00,,---,0.10,VWS V14.01,2013-02-15 14:06:00,
2013-02-15 09:07:00,68.2,65.6,30.09,South,186,2.7,3.6,91,0.00,,---,0.10,VWS V14.01,2013-02-15 14:07:00,
2013-02-15 09:10:00,68.2,65.5,30.09,South,173,1.2,2.5,91,0.00,,---,0.10,VWS V14.01,2013-02-15 14:10:00,
2013-02-15 09:11:00,68.2,65.5,30.09,SSE,165,0.7,2.9,91,0.00,,---,0.10,VWS V14.01,2013-02-15 14:11:00,
2013-02-15 09:12:00,68.2,65.5,30.09,South,177,2.2,2.2,91,0.00,,---,0.10,VWS V14.01,2013-02-15 14:12:00,
2013-02-15 09:16:00,68.3,65.6,30.09,SE,141,0.0,0.5,91,0.00,,---,0.10,VWS V14.01,2013-02-15 14:16:00,
2013-02-15 09:17:00,68.3,65.5,30.09,SSE,160,2.6,4.2,91,0.00,,---,0.10,VWS V14.01,2013-02-15 14:17:00,
2013-02-15 09:21:00,68.4,65.6,30.09,SSW,210,1.7,1.7,91,0.00,,---,0.10,VWS V14.01,2013-02-15 14:21:00,
2013-02-15 09:22:00,68.4,65.7,30.09,South,181,1.7,2.4,91,0.00,,---,0.10,VWS V14.01,2013-02-15 14:22:00,
2013-02-15 09:23:00,68.4,65.6,30.09,SSE,149,2.9,2.9,91,0.00,,---,0.10,VWS V14.01,2013-02-15 14:23:00,
2013-02-15 09:26:00,68.4,65.5,30.10,ESE,108,1.2,2.4,90,0.00,,---,0.10,VWS V14.01,2013-02-15 14:26:00,
2013-02-15 09:27:00,68.4,65.6,30.10,ESE,118,0.0,0.0,91,0.00,,---,0.10,VWS V14.01,2013-02-15 14:27:00,
2013-02-15 09:28:00,68.4,65.6,30.10,ESE,118,0.0,0.0,91,0.00,,---,0.10,VWS V14.01,2013-02-15 14:28:00,
2013-02-15 09:31:00,68.6,65.8,30.10,ESE,118,0.0,0.0,91,0.00,,---,0.10,VWS V14.01,2013-02-15 14:31:00,
2013-02-15 09:32:00,68.9,66.1,30.10,ESE,118,0.0,0.0,91,0.00,,---,0.10,VWS V14.01,2013-02-15 14:32:00,
2013-02-15 09:33:00,68.6,65.7,30.10,South,186,2.7,3.2,90,0.00,,---,0.10,VWS V14.01,2013-02-15 14:33:00,
2013-02-15 09:36:00,68.7,65.6,30.10,SSE,150,3.1,3.2,90,0.00,,---,0.10,VWS V14.01,2013-02-15 14:36:00,
2013-02-15 09:37:00,68.9,65.9,30.10,ESE,118,0.0,2.9,90,0.00,,---,0.10,VWS V14.01,2013-02-15 14:37:00,
2013-02-15 09:38:00,68.7,65.6,30.10,East,83,1.4,3.4,90,0.00,,---,0.10,VWS V14.01,2013-02-15 14:38:00,
2013-02-15 09:41:00,68.8,65.4,30.10,ESE,122,2.1,3.5,89,0.00,,---,0.10,VWS V14.01,2013-02-15 14:41:00,
2013-02-15 09:42:00,68.9,65.6,30.10,SE,131,2.7,3.2,89,0.00,,---,0.10,VWS V14.01,2013-02-15 14:42:00,
2013-02-15 09:43:00,68.7,65.3,30.10,SE,145,3.5,3.9,89,0.00,,---,0.10,VWS V14.01,2013-02-15 14:43:00,
2013-02-15 09:46:00,69.0,65.7,30.10,SSE,148,0.0,0.0,89,0.00,,---,0.10,VWS V14.01,2013-02-15 14:46:00,
2013-02-15 09:47:00,69.1,65.9,30.10,SSE,148,0.0,0.0,89,0.00,,---,0.10,VWS V14.01,2013-02-15 14:47:00,
2013-02-15 09:48:00,69.2,65.9,30.10,SSE,148,0.0,0.0,89,0.00,,---,0.10,VWS V14.01,2013-02-15 14:48:00,
2013-02-15 09:51:00,69.2,65.9,30.10,SSE,148,0.0,0.0,89,0.00,,---,0.10,VWS V14.01,2013-02-15 14:51:00,
2013-02-15 09:52:00,69.4,66.2,30.10,SSE,148,0.0,0.0,89,0.00,,---,0.10,VWS V14.01,2013-02-15 14:52:00,
2013-02-15 09:53:00,69.4,66.0,30.10,SSE,148,0.0,0.0,89,0.00,,---,0.10,VWS V14.01,2013-02-15 14:53:00,
2013-02-15 09:56:00,69.6,66.2,30.10,SE,142,2.9,2.9,89,0.00,,---,0.10,VWS V14.01,2013-02-15 14:56:00,
2013-02-15 09:57:00,69.5,66.0,30.10,SSW,207,1.7,2.9,88,0.00,,---,0.10,VWS V14.01,2013-02-15 14:57:00,
2013-02-15 09:58:00,69.8,66.3,30.10,SSE,148,0.0,0.0,89,0.00,,---,0.10,VWS V14.01,2013-02-15 14:58:00,
2013-02-15 10:01:00,69.9,66.0,30.11,SSE,156,1.6,3.4,88,0.00,,---,0.10,VWS V14.01,2013-02-15 15:01:00,
2013-02-15 10:02:00,69.9,66.2,30.11,ESE,104,0.5,3.4,88,0.00,,---,0.10,VWS V14.01,2013-02-15 15:02:00,
2013-02-15 10:04:00,70.0,66.1,30.11,SSE,152,2.4,2.4,87,0.00,,---,0.10,VWS V14.01,2013-02-15 15:04:00,
2013-02-15 10:07:00,70.3,66.0,30.11,South,183,2.7,4.2,86,0.00,,---,0.10,VWS V14.01,2013-02-15 15:07:00,
2013-02-15 10:09:00,70.5,65.9,30.11,East,79,0.4,2.1,86,0.00,,---,0.10,VWS V14.01,2013-02-15 15:09:00,
2013-02-15 10:12:00,70.9,66.1,30.11,South,176,0.6,1.9,85,0.00,,---,0.10,VWS V14.01,2013-02-15 15:12:00,
2013-02-15 10:14:00,71.3,66.4,30.11,South,170,0.8,2.7,85,0.00,,---,0.10,VWS V14.01,2013-02-15 15:14:00,
2013-02-15 10:17:00,71.3,65.9,30.11,SSE,150,1.5,4.3,83,0.00,,---,0.10,VWS V14.01,2013-02-15 15:17:00,
2013-02-15 10:19:00,71.5,65.7,30.11,SSE,149,2.5,4.3,82,0.00,,---,0.10,VWS V14.01,2013-02-15 15:19:00,
2013-02-15 10:22:00,71.7,66.4,30.11,SSE,156,3.5,5.0,83,0.00,,---,0.10,VWS V14.01,2013-02-15 15:22:00,
2013-02-15 10:23:00,71.7,65.6,30.11,SE,138,3.5,4.3,81,0.00,,---,0.10,VWS V14.01,2013-02-15 15:23:00,
2013-02-15 10:24:00,71.8,65.9,30.11,East,82,4.6,4.6,82,0.00,,---,0.10,VWS V14.01,2013-02-15 15:24:00,
2013-02-15 10:27:00,71.7,64.9,30.11,ESE,118,2.8,5.6,79,0.00,,---,0.10,VWS V14.01,2013-02-15 15:27:00,
2013-02-15 10:28:00,71.6,64.8,30.11,SSW,193,1.7,3.7,79,0.00,,---,0.10,VWS V14.01,2013-02-15 15:28:00,
2013-02-15 10:29:00,71.8,65.2,30.11,SE,139,2.4,2.5,80,0.00,,---,0.10,VWS V14.01,2013-02-15 15:29:00,
2013-02-15 10:32:00,71.8,65.3,30.12,NNE,24,0.0,0.0,80,0.00,,---,0.10,VWS V14.01,2013-02-15 15:32:00,
2013-02-15 10:33:00,71.8,65.7,30.12,NNE,24,0.0,0.0,81,0.00,,---,0.10,VWS V14.01,2013-02-15 15:33:00,
2013-02-15 10:34:00,71.9,65.7,30.12,NNW,347,0.0,0.0,81,0.00,,---,0.10,VWS V14.01,2013-02-15 15:34:00,
2013-02-15 10:37:00,71.8,65.2,30.12,East,80,2.5,2.5,80,0.00,,---,0.10,VWS V14.01,2013-02-15 15:37:00,
2013-02-15 10:38:00,71.9,64.9,30.12,ENE,73,0.9,2.5,79,0.00,,---,0.10,VWS V14.01,2013-02-15 15:38:00,
2013-02-15 10:40:00,72.2,66.0,30.12,NNW,333,2.2,2.2,81,0.00,,---,0.10,VWS V14.01,2013-02-15 15:40:00,
2013-02-15 10:42:00,72.2,65.9,30.12,ESE,107,0.0,0.0,81,0.00,,---,0.10,VWS V14.01,2013-02-15 15:42:00,
2013-02-15 10:43:00,72.3,66.2,30.12,ESE,107,0.0,0.0,81,0.00,,---,0.10,VWS V14.01,2013-02-15 15:43:00,
2013-02-15 10:45:00,72.2,65.4,30.12,NNE,32,1.2,1.9,79,0.00,,---,0.10,VWS V14.01,2013-02-15 15:45:00,
2013-02-15 10:47:00,72.3,65.6,30.12,NE,46,0.6,1.0,80,0.00,,---,0.10,VWS V14.01,2013-02-15 15:47:00,
2013-02-15 10:48:00,72.4,66.0,30.12,ESE,110,1.6,2.3,80,0.00,,---,0.10,VWS V14.01,2013-02-15 15:48:00,
2013-02-15 10:50:00,72.4,65.8,30.11,South,173,0.4,1.6,80,0.00,,---,0.10,VWS V14.01,2013-02-15 15:50:00,
2013-02-15 10:52:00,72.3,65.9,30.11,NNE,24,0.0,0.0,80,0.00,,---,0.10,VWS V14.01,2013-02-15 15:52:00,
2013-02-15 10:53:00,72.4,66.1,30.11,NNE,24,0.0,0.0,81,0.00,,---,0.10,VWS V14.01,2013-02-15 15:53:00,
2013-02-15 10:54:00,72.4,66.1,30.11,NNE,24,0.0,0.0,81,0.00,,---,0.10,VWS V14.01,2013-02-15 15:54:00,
2013-02-15 10:55:00,72.5,66.1,30.11,NNE,24,0.0,0.0,80,0.00,,---,0.10,VWS V14.01,2013-02-15 15:55:00,
2013-02-15 10:57:00,72.4,66.1,30.11,NNE,24,0.0,0.0,80,0.00,,---,0.10,VWS V14.01,2013-02-15 15:57:00,
2013-02-15 10:58:00,72.5,66.2,30.11,NNE,24,0.0,0.0,80,0.00,,---,0.10,VWS V14.01,2013-02-15 15:58:00,
2013-02-15 10:59:00,72.6,66.2,30.11,NNE,24,0.0,0.0,80,0.00,,---,0.10,VWS V14.01,2013-02-15 15:59:00,
2013-02-15 11:00:00,72.7,66.4,30.11,NNE,24,0.0,0.0,81,0.00,,---,0.10,VWS V14.01,2013-02-15 16:00:00,
2013-02-15 11:03:00,72.7,65.7,30.11,South,188,2.2,2.9,79,0.00,,---,0.10,VWS V14.01,2013-02-15 16:03:00,
2013-02-15 11:04:00,72.9,65.9,30.11,SE,124,1.2,2.8,79,0.00,,---,0.10,VWS V14.01,2013-02-15 16:04:00,
2013-02-15 11:05:00,72.8,65.7,30.11,ESE,108,0.7,3.2,78,0.00,,---,0.10,VWS V14.01,2013-02-15 16:05:00,
2013-02-15 11:08:00,72.9,65.6,30.11,SE,146,1.8,1.9,78,0.00,,---,0.10,VWS V14.01,2013-02-15 16:08:00,
2013-02-15 11:09:00,73.0,65.4,30.11,ESE,115,1.1,3.4,77,0.00,,---,0.10,VWS V14.01,2013-02-15 16:09:00,
2013-02-15 11:10:00,72.9,65.6,30.11,ENE,77,0.0,1.1,78,0.00,,---,0.10,VWS V14.01,2013-02-15 16:10:00,
2013-02-15 11:13:00,73.0,65.7,30.11,South,181,0.0,0.6,78,0.00,,---,0.10,VWS V14.01,2013-02-15 16:13:00,
2013-02-15 11:14:00,73.0,65.4,30.11,South,173,0.5,0.5,77,0.00,,---,0.10,VWS V14.01,2013-02-15 16:14:00,
2013-02-15 11:15:00,73.1,65.5,30.11,South,173,0.0,0.0,77,0.00,,---,0.10,VWS V14.01,2013-02-15 16:15:00,
2013-02-15 11:18:00,73.2,65.5,30.11,South,187,2.8,2.8,77,0.00,,---,0.10,VWS V14.01,2013-02-15 16:18:00,
2013-02-15 11:19:00,73.1,65.2,30.11,SSE,167,1.2,2.5,76,0.00,,---,0.10,VWS V14.01,2013-02-15 16:19:00,
2013-02-15 11:20:00,73.3,65.8,30.11,SSE,158,0.0,0.0,77,0.00,,---,0.10,VWS V14.01,2013-02-15 16:20:00,
2013-02-15 11:23:00,73.2,65.5,30.11,East,90,2.5,2.7,77,0.00,,---,0.10,VWS V14.01,2013-02-15 16:23:00,
2013-02-15 11:24:00,73.0,65.1,30.11,East,84,0.4,2.7,76,0.00,,---,0.10,VWS V14.01,2013-02-15 16:24:00,
2013-02-15 11:25:00,73.2,65.8,30.11,East,84,0.0,0.0,78,0.00,,---,0.10,VWS V14.01,2013-02-15 16:25:00,
2013-02-15 11:28:00,73.0,65.6,30.11,ESE,104,0.0,0.0,78,0.00,,---,0.10,VWS V14.01,2013-02-15 16:28:00,
2013-02-15 11:29:00,73.0,65.7,30.11,ESE,104,0.0,0.0,78,0.00,,---,0.10,VWS V14.01,2013-02-15 16:29:00,
2013-02-15 11:30:00,73.0,65.6,30.11,ESE,104,0.0,0.0,78,0.00,,---,0.10,VWS V14.01,2013-02-15 16:30:00,
2013-02-15 11:33:00,72.9,65.3,30.11,ENE,73,2.3,2.8,77,0.00,,---,0.10,VWS V14.01,2013-02-15 16:33:00,
2013-02-15 11:34:00,72.8,65.3,30.11,ENE,63,0.0,1.3,77,0.00,,---,0.10,VWS V14.01,2013-02-15 16:34:00,
2013-02-15 11:35:00,72.5,64.8,30.11,ENE,68,1.4,2.7,77,0.00,,---,0.10,VWS V14.01,2013-02-15 16:35:00,
2013-02-15 11:38:00,72.3,65.1,30.10,ENE,63,1.4,1.4,78,0.00,,---,0.10,VWS V14.01,2013-02-15 16:38:00,
2013-02-15 11:39:00,72.1,64.7,30.10,NNE,18,2.8,3.7,78,0.00,,---,0.10,VWS V14.01,2013-02-15 16:39:00,
2013-02-15 11:40:00,72.0,64.7,30.10,East,82,3.8,4.2,78,0.00,,---,0.10,VWS V14.01,2013-02-15 16:40:00,
2013-02-15 11:43:00,71.7,64.6,30.10,East,89,2.5,2.9,78,0.00,,---,0.10,VWS V14.01,2013-02-15 16:43:00,
2013-02-15 11:44:00,71.6,64.6,30.10,East,91,1.2,2.5,79,0.00,,---,0.10,VWS V14.01,2013-02-15 16:44:00,
2013-02-15 11:45:00,71.7,64.7,30.10,ESE,105,0.6,2.5,79,0.00,,---,0.10,VWS V14.01,2013-02-15 16:45:00,
2013-02-15 11:48:00,71.5,64.8,30.10,ESE,105,0.0,0.0,80,0.00,,---,0.10,VWS V14.01,2013-02-15 16:48:00,
2013-02-15 11:50:00,71.5,64.9,30.10,NW,326,0.9,2.1,80,0.00,,---,0.10,VWS V14.01,2013-02-15 16:50:00,
2013-02-15 11:51:00,71.5,64.9,30.10,East,83,0.0,0.5,80,0.00,,---,0.10,VWS V14.01,2013-02-15 16:51:00,
2013-02-15 11:53:00,71.5,64.7,30.10,ENE,58,2.1,2.1,79,0.00,,---,0.10,VWS V14.01,2013-02-15 16:53:00,
2013-02-15 11:55:00,71.5,64.8,30.11,NNE,28,0.0,0.0,79,0.00,,---,0.10,VWS V14.01,2013-02-15 16:55:00,
2013-02-15 11:56:00,71.3,64.6,30.11,NNE,28,0.0,0.0,79,0.00,,---,0.10,VWS V14.01,2013-02-15 16:56:00,
2013-02-15 11:59:00,71.4,64.8,30.11,NNE,28,0.0,0.0,80,0.00,,---,0.10,VWS V14.01,2013-02-15 16:59:00,
2013-02-15 12:00:00,71.4,64.8,30.11,NNE,28,0.0,0.0,80,0.00,,---,0.10,VWS V14.01,2013-02-15 17:00:00,
2013-02-15 12:01:00,71.4,64.8,30.11,NNE,28,0.0,0.0,80,0.00,,---,0.10,VWS V14.01,2013-02-15 17:01:00,
2013-02-15 12:04:00,71.6,65.2,30.11,NNE,28,0.0,0.0,80,0.00,,---,0.10,VWS V14.01,2013-02-15 17:04:00,
2013-02-15 12:05:00,71.5,65.1,30.11,NNE,28,0.0,0.0,80,0.00,,---,0.10,VWS V14.01,2013-02-15 17:05:00,
2013-02-15 12:06:00,71.4,65.0,30.11,NNW,338,1.6,2.2,80,0.00,,---,0.10,VWS V14.01,2013-02-15 17:06:00,
2013-02-15 12:09:00,71.5,65.3,30.11,North,0,0.0,0.0,81,0.00,,---,0.10,VWS V14.01,2013-02-15 17:09:00,
2013-02-15 12:10:00,71.5,65.3,30.10,SE,142,0.7,0.9,81,0.00,,---,0.10,VWS V14.01,2013-02-15 17:10:00,
2013-02-15 12:11:00,71.5,65.3,30.10,North,350,1.5,2.5,81,0.00,,---,0.10,VWS V14.01,2013-02-15 17:11:00,
2013-02-15 12:14:00,71.3,65.2,30.11,NNW,329,2.5,5.0,81,0.00,,---,0.10,VWS V14.01,2013-02-15 17:14:00,
2013-02-15 12:15:00,71.4,65.4,30.11,NNW,345,2.9,5.7,81,0.00,,---,0.10,VWS V14.01,2013-02-15 17:15:00,
2013-02-15 12:16:00,71.3,65.3,30.10,NW,319,1.3,2.2,81,0.00,,---,0.10,VWS V14.01,2013-02-15 17:16:00,
2013-02-15 12:19:00,71.1,65.4,30.11,WNW,295,0.0,2.2,82,0.00,,---,0.10,VWS V14.01,2013-02-15 17:19:00,
2013-02-15 12:20:00,71.1,65.4,30.10,NW,318,2.6,2.6,82,0.00,,---,0.10,VWS V14.01,2013-02-15 17:20:00,
2013-02-15 12:21:00,71.1,65.4,30.10,North,357,0.8,2.6,82,0.00,,---,0.10,VWS V14.01,2013-02-15 17:21:00,
2013-02-15 12:24:00,70.9,65.4,30.10,NNW,345,1.6,1.8,83,0.00,,---,0.10,VWS V14.01,2013-02-15 17:24:00,
2013-02-15 12:25:00,70.5,65.1,30.10,NNE,21,3.2,6.0,83,0.00,,---,0.10,VWS V14.01,2013-02-15 17:25:00,
2013-02-15 12:26:00,70.8,65.3,30.10,SE,131,3.6,6.0,83,0.00,,---,0.10,VWS V14.01,2013-02-15 17:26:00,
2013-02-15 12:29:00,70.4,65.4,30.10,North,357,1.7,2.7,84,0.00,,---,0.10,VWS V14.01,2013-02-15 17:29:00,
2013-02-15 12:30:00,70.3,65.4,30.10,NE,45,0.0,0.0,84,0.00,,---,0.10,VWS V14.01,2013-02-15 17:30:00,
2013-02-15 12:31:00,70.3,65.3,30.10,NE,45,0.0,0.0,84,0.00,,---,0.10,VWS V14.01,2013-02-15 17:31:00,
2013-02-15 12:32:00,70.2,65.4,30.10,NNW,333,0.0,1.2,85,0.00,,---,0.10,VWS V14.01,2013-02-15 17:32:00,
2013-02-15 12:34:00,70.1,65.3,30.10,North,11,0.0,0.0,85,0.00,,---,0.10,VWS V14.01,2013-02-15 17:34:00,
2013-02-15 12:35:00,69.8,65.1,30.10,North,11,0.8,0.8,85,0.00,,---,0.10,VWS V14.01,2013-02-15 17:35:00,
2013-02-15 12:36:00,70.0,65.4,30.10,ENE,60,2.9,2.9,85,0.00,,---,0.10,VWS V14.01,2013-02-15 17:36:00,
2013-02-15 12:37:00,69.9,65.3,30.10,North,359,4.8,5.3,85,0.00,,---,0.10,VWS V14.01,2013-02-15 17:37:00,
2013-02-15 12:39:00,69.5,65.0,30.09,NNW,346,4.5,4.5,86,0.00,,---,0.10,VWS V14.01,2013-02-15 17:39:00,
2013-02-15 12:40:00,69.5,65.2,30.09,North,7,3.4,3.5,86,0.00,,---,0.10,VWS V14.01,2013-02-15 17:40:00,
2013-02-15 12:41:00,69.4,65.1,30.10,NNE,22,3.5,8.0,86,0.00,,---,0.10,VWS V14.01,2013-02-15 17:41:00,
2013-02-15 12:42:00,69.5,65.3,30.10,North,359,4.2,5.7,87,0.00,,---,0.10,VWS V14.01,2013-02-15 17:42:00,
2013-02-15 12:45:00,68.8,64.8,30.10,WNW,285,3.9,5.6,87,0.00,,---,0.10,VWS V14.01,2013-02-15 17:45:00,
2013-02-15 12:46:00,68.8,65.0,30.10,North,11,3.8,4.5,88,0.00,,---,0.10,VWS V14.01,2013-02-15 17:46:00,
2013-02-15 12:47:00,68.6,64.8,30.10,WNW,295,1.6,7.9,88,0.00,,---,0.10,VWS V14.01,2013-02-15 17:47:00,
2013-02-15 12:50:00,68.4,64.8,30.09,North,0,3.4,5.6,88,0.00,,---,0.10,VWS V14.01,2013-02-15 17:50:00,
2013-02-15 12:51:00,68.2,64.7,30.10,North,357,4.2,6.5,89,0.00,,---,0.10,VWS V14.01,2013-02-15 17:51:00,
2013-02-15 12:52:00,68.2,64.7,30.10,NNW,338,1.7,1.9,89,0.00,,---,0.10,VWS V14.01,2013-02-15 17:52:00,
2013-02-15 12:55:00,67.9,64.5,30.10,North,359,5.8,6.5,89,0.00,,---,0.10,VWS V14.01,2013-02-15 17:55:00,
2013-02-15 12:56:00,67.9,64.5,30.10,ENE,65,5.8,6.8,89,0.00,,---,0.10,VWS V14.01,2013-02-15 17:56:00,
2013-02-15 12:57:00,67.8,64.5,30.10,NNE,13,4.8,4.8,89,0.00,,---,0.10,VWS V14.01,2013-02-15 17:57:00,
2013-02-15 13:00:00,67.4,64.2,30.10,North,0,1.7,3.5,89,0.00,,---,0.10,VWS V14.01,2013-02-15 18:00:00,
2013-02-15 13:01:00,67.3,64.1,30.09,WNW,290,1.7,4.3,89,0.00,,---,0.10,VWS V14.01,2013-02-15 18:01:00,
2013-02-15 13:02:00,67.5,64.4,30.09,NW,322,0.2,1.2,90,0.00,,---,0.10,VWS V14.01,2013-02-15 18:02:00,
2013-02-15 13:05:00,67.2,64.2,30.09,NNW,329,6.2,8.9,90,0.00,,---,0.10,VWS V14.01,2013-02-15 18:05:00,
2013-02-15 13:06:00,67.2,64.1,30.09,North,3,2.1,5.3,90,0.00,,---,0.10,VWS V14.01,2013-02-15 18:06:00,
2013-02-15 13:07:00,67.2,64.1,30.09,North,11,1.0,1.7,90,0.00,,---,0.10,VWS V14.01,2013-02-15 18:07:00,
2013-02-15 13:10:00,67.1,64.2,30.09,NW,312,1.9,1.9,90,0.00,,---,0.10,VWS V14.01,2013-02-15 18:10:00,
2013-02-15 13:11:00,67.0,64.2,30.09,North,10,1.7,6.0,91,0.00,,---,0.10,VWS V14.01,2013-02-15 18:11:00,
2013-02-15 13:12:00,67.0,64.1,30.09,NNW,328,2.9,4.0,90,0.00,,---,0.10,VWS V14.01,2013-02-15 18:12:00,
2013-02-15 13:15:00,67.0,64.2,30.09,NNW,342,3.9,3.9,91,0.10,,---,0.20,VWS V14.01,2013-02-15 18:15:00,
2013-02-15 13:16:00,67.1,64.2,30.09,NNE,31,0.0,3.9,90,0.10,,---,0.20,VWS V14.01,2013-02-15 18:16:00,
2013-02-15 13:17:00,67.1,64.2,30.08,NNE,31,0.0,0.0,90,0.10,,---,0.20,VWS V14.01,2013-02-15 18:17:00,
2013-02-15 13:20:00,67.2,64.3,30.08,NNE,31,0.0,0.0,90,0.10,,---,0.20,VWS V14.01,2013-02-15 18:20:00,
2013-02-15 13:21:00,67.1,64.2,30.08,NNE,31,0.0,0.0,90,0.10,,---,0.20,VWS V14.01,2013-02-15 18:21:00,
2013-02-15 13:22:00,67.1,64.2,30.08,NW,318,1.4,4.1,90,0.10,,---,0.20,VWS V14.01,2013-02-15 18:22:00,
2013-02-15 13:25:00,67.2,64.3,30.08,NW,325,0.0,1.5,90,0.10,,---,0.20,VWS V14.01,2013-02-15 18:25:00,
2013-02-15 13:26:00,67.0,64.2,30.08,North,353,1.8,2.4,91,0.10,,---,0.20,VWS V14.01,2013-02-15 18:26:00,
2013-02-15 13:27:00,67.2,64.4,30.08,North,356,0.8,2.4,91,0.10,,---,0.20,VWS V14.01,2013-02-15 18:27:00,
2013-02-15 13:30:00,67.2,64.5,30.08,NNE,25,4.9,5.1,91,0.10,,---,0.20,VWS V14.01,2013-02-15 18:30:00,
2013-02-15 13:31:00,67.2,64.5,30.08,NNW,339,3.6,4.8,91,0.10,,---,0.20,VWS V14.01,2013-02-15 18:31:00,
2013-02-15 13:32:00,67.2,64.5,30.08,NNW,333,2.2,4.8,91,0.10,,---,0.20,VWS V14.01,2013-02-15 18:32:00,
2013-02-15 13:35:00,67.3,64.7,30.07,ENE,62,2.1,3.5,91,0.10,,---,0.20,VWS V14.01,2013-02-15 18:35:00,
2013-02-15 13:36:00,67.2,64.7,30.07,SE,124,1.4,3.4,92,0.10,,---,0.20,VWS V14.01,2013-02-15 18:36:00,
2013-02-15 13:37:00,67.2,64.6,30.07,SE,124,0.0,3.4,91,0.10,,---,0.20,VWS V14.01,2013-02-15 18:37:00,
2013-02-15 13:40:00,67.3,64.6,30.07,ENE,58,0.0,2.2,91,0.10,,---,0.20,VWS V14.01,2013-02-15 18:40:00,
2013-02-15 13:41:00,67.3,64.6,30.07,NNW,336,4.4,4.4,91,0.10,,---,0.20,VWS V14.01,2013-02-15 18:41:00,
2013-02-15 13:42:00,67.4,64.8,30.07,NNW,343,2.4,4.4,91,0.10,,---,0.20,VWS V14.01,2013-02-15 18:42:00,
2013-02-15 13:43:00,67.5,65.0,30.07,North,359,5.2,5.8,92,0.10,,---,0.20,VWS V14.01,2013-02-15 18:43:00,
2013-02-15 13:45:00,67.2,64.5,30.07,NE,41,0.0,1.2,91,0.10,,---,0.20,VWS V14.01,2013-02-15 18:45:00,
2013-02-15 13:46:00,67.2,64.5,30.07,NW,312,4.3,5.3,91,0.10,,---,0.20,VWS V14.01,2013-02-15 18:46:00,
2013-02-15 13:47:00,67.4,64.7,30.07,NNW,328,2.0,5.7,91,0.10,,---,0.20,VWS V14.01,2013-02-15 18:47:00,
2013-02-15 13:48:00,67.3,64.6,30.07,NW,318,1.6,4.5,91,0.10,,---,0.20,VWS V14.01,2013-02-15 18:48:00,
2013-02-15 13:50:00,67.4,64.7,30.06,NW,322,3.4,4.3,91,0.10,,---,0.20,VWS V14.01,2013-02-15 18:50:00,
2013-02-15 13:51:00,67.4,64.7,30.06,NNW,329,1.0,3.8,91,0.10,,---,0.20,VWS V14.01,2013-02-15 18:51:00,
2013-02-15 13:52:00,67.2,64.5,30.06,NNW,328,1.0,3.8,91,0.10,,---,0.20,VWS V14.01,2013-02-15 18:52:00,
2013-02-15 13:53:00,67.4,64.8,30.06,NNW,343,6.7,7.8,91,0.10,,---,0.20,VWS V14.01,2013-02-15 18:53:00,
2013-02-15 13:55:00,67.2,64.5,30.06,NW,315,2.4,7.0,91,0.10,,---,0.20,VWS V14.01,2013-02-15 18:55:00,
2013-02-15 13:56:00,67.2,64.5,30.06,NW,304,3.9,8.4,91,0.10,,---,0.20,VWS V14.01,2013-02-15 18:56:00,
2013-02-15 13:57:00,67.3,64.6,30.06,North,349,5.1,8.4,91,0.10,,---,0.20,VWS V14.01,2013-02-15 18:57:00,
2013-02-15 13:58:00,67.3,64.6,30.06,NW,315,0.9,1.1,91,0.10,,---,0.20,VWS V14.01,2013-02-15 18:58:00,
2013-02-15 14:00:00,67.5,64.8,30.06,NW,323,4.3,6.5,91,0.10,,---,0.20,VWS V14.01,2013-02-15 19:00:00,
2013-02-15 14:02:00,67.4,64.5,30.06,North,359,3.2,5.2,90,0.10,,---,0.20,VWS V14.01,2013-02-15 19:02:00,
2013-02-15 14:04:00,67.5,64.7,30.06,NW,322,0.9,4.1,91,0.10,,---,0.20,VWS V14.01,2013-02-15 19:04:00,
2013-02-15 14:06:00,67.7,64.9,30.06,North,8,0.0,0.8,91,0.10,,---,0.20,VWS V14.01,2013-02-15 19:06:00,
2013-02-15 14:07:00,67.8,65.0,30.06,NW,326,2.2,3.5,91,0.10,,---,0.20,VWS V14.01,2013-02-15 19:07:00,
2013-02-15 14:09:00,67.8,65.0,30.06,North,350,0.0,0.0,91,0.10,,---,0.20,VWS V14.01,2013-02-15 19:09:00,
2013-02-15 14:11:00,67.8,64.9,30.06,North,349,0.0,0.0,90,0.10,,---,0.20,VWS V14.01,2013-02-15 19:11:00,
2013-02-15 14:12:00,67.8,64.9,30.06,NNW,333,4.5,5.6,90,0.10,,---,0.20,VWS V14.01,2013-02-15 19:12:00,
2013-02-15 14:14:00,67.8,64.8,30.06,West,270,0.0,4.7,90,0.10,,---,0.20,VWS V14.01,2013-02-15 19:14:00,
2013-02-15 14:16:00,67.9,64.9,30.06,West,270,0.0,0.0,90,0.00,,---,0.20,VWS V14.01,2013-02-15 19:16:00,
2013-02-15 14:17:00,67.8,64.8,30.06,West,270,0.0,0.0,90,0.00,,---,0.20,VWS V14.01,2013-02-15 19:17:00,
2013-02-15 14:19:00,67.8,64.7,30.06,West,270,0.0,0.0,90,0.00,,---,0.20,VWS V14.01,2013-02-15 19:19:00,
2013-02-15 14:21:00,67.9,64.9,30.06,West,270,0.0,0.0,90,0.00,,---,0.20,VWS V14.01,2013-02-15 19:21:00,
2013-02-15 14:22:00,67.9,64.9,30.06,West,270,0.0,0.0,90,0.00,,---,0.20,VWS V14.01,2013-02-15 19:22:00,
2013-02-15 14:24:00,68.1,65.1,30.05,West,270,0.0,0.0,90,0.00,,---,0.20,VWS V14.01,2013-02-15 19:24:00,
2013-02-15 14:26:00,68.2,65.2,30.06,West,270,0.0,0.0,90,0.00,,---,0.20,VWS V14.01,2013-02-15 19:26:00,
2013-02-15 14:27:00,68.1,65.1,30.06,West,270,0.0,0.0,90,0.00,,---,0.20,VWS V14.01,2013-02-15 19:27:00,
2013-02-15 14:29:00,68.1,65.0,30.06,West,270,0.0,0.0,90,0.00,,---,0.20,VWS V14.01,2013-02-15 19:29:00,
2013-02-15 14:31:00,68.1,65.0,30.06,West,270,0.0,0.0,90,0.00,,---,0.20,VWS V14.01,2013-02-15 19:31:00,
2013-02-15 14:32:00,68.1,64.9,30.05,NNW,336,1.6,1.6,90,0.00,,---,0.20,VWS V14.01,2013-02-15 19:32:00,
2013-02-15 14:34:00,67.9,64.8,30.05,NNW,339,0.0,0.0,90,0.00,,---,0.20,VWS V14.01,2013-02-15 19:34:00,
2013-02-15 14:36:00,67.9,64.8,30.05,NNW,339,0.0,0.0,90,0.00,,---,0.20,VWS V14.01,2013-02-15 19:36:00,
2013-02-15 14:37:00,67.9,64.8,30.05,NNW,339,0.0,0.0,90,0.00,,---,0.20,VWS V14.01,2013-02-15 19:37:00,
2013-02-15 14:39:00,68.0,64.9,30.05,NNW,339,0.0,0.0,90,0.00,,---,0.20,VWS V14.01,2013-02-15 19:39:00,
2013-02-15 14:41:00,68.1,65.0,30.05,NNW,339,0.0,0.0,90,0.00,,---,0.20,VWS V14.01,2013-02-15 19:41:00,
2013-02-15 14:42:00,68.2,65.1,30.05,NNW,339,0.0,0.0,90,0.00,,---,0.20,VWS V14.01,2013-02-15 19:42:00,
2013-02-15 14:43:00,68.0,64.9,30.05,NNW,339,0.0,0.0,90,0.00,,---,0.20,VWS V14.01,2013-02-15 19:43:00,
2013-02-15 14:44:00,68.1,64.9,30.05,NNW,339,0.0,0.0,89,0.00,,---,0.20,VWS V14.01,2013-02-15 19:44:00,
2013-02-15 14:46:00,68.0,64.8,30.05,NNW,339,0.0,0.0,90,0.00,,---,0.20,VWS V14.01,2013-02-15 19:46:00,
2013-02-15 14:47:00,68.1,65.0,30.05,NNW,339,0.0,0.0,90,0.00,,---,0.20,VWS V14.01,2013-02-15 19:47:00,
2013-02-15 14:48:00,67.9,64.8,30.05,NNW,339,0.0,0.0,90,0.00,,---,0.20,VWS V14.01,2013-02-15 19:48:00,
2013-02-15 14:49:00,68.0,65.0,30.05,NNW,339,0.0,0.0,90,0.00,,---,0.20,VWS V14.01,2013-02-15 19:49:00,
2013-02-15 14:51:00,68.2,65.2,30.06,NNW,339,0.0,0.0,90,0.00,,---,0.20,VWS V14.01,2013-02-15 19:51:00,
2013-02-15 14:52:00,68.3,65.2,30.06,NNW,339,0.0,0.0,90,0.00,,---,0.20,VWS V14.01,2013-02-15 19:52:00,
2013-02-15 14:53:00,68.2,65.1,30.06,NNW,339,0.0,0.0,90,0.00,,---,0.20,VWS V14.01,2013-02-15 19:53:00,
2013-02-15 14:54:00,68.4,65.4,30.06,NNW,339,0.0,0.0,90,0.00,,---,0.20,VWS V14.01,2013-02-15 19:54:00,
2013-02-15 14:56:00,68.1,65.0,30.06,NNW,339,0.0,0.0,90,0.00,,---,0.20,VWS V14.01,2013-02-15 19:56:00,
2013-02-15 14:58:00,68.3,65.2,30.05,NNW,339,0.0,0.0,90,0.00,,---,0.20,VWS V14.01,2013-02-15 19:58:00,
2013-02-15 14:59:00,68.1,65.0,30.06,NNW,339,0.0,0.0,90,0.00,,---,0.20,VWS V14.01,2013-02-15 19:59:00,
2013-02-15 15:01:00,68.2,65.2,30.06,NNW,339,0.0,0.0,90,0.00,,---,0.20,VWS V14.01,2013-02-15 20:01:00,
2013-02-15 15:03:00,68.2,65.2,30.05,NNW,332,1.6,1.6,90,0.00,,---,0.20,VWS V14.01,2013-02-15 20:03:00,
2013-02-15 15:05:00,68.0,64.9,30.05,NW,321,1.0,3.3,90,0.00,,---,0.20,VWS V14.01,2013-02-15 20:05:00,
2013-02-15 15:06:00,68.1,65.1,30.05,NW,321,0.0,0.0,90,0.00,,---,0.20,VWS V14.01,2013-02-15 20:06:00,
2013-02-15 15:08:00,68.1,65.1,30.05,North,354,0.6,2.5,90,0.00,,---,0.20,VWS V14.01,2013-02-15 20:08:00,
2013-02-15 15:10:00,68.0,65.0,30.05,North,354,0.0,0.0,90,0.00,,---,0.20,VWS V14.01,2013-02-15 20:10:00,
2013-02-15 15:12:00,67.8,64.9,30.05,NNW,336,2.7,2.7,90,0.00,,---,0.20,VWS V14.01,2013-02-15 20:12:00,
2013-02-15 15:13:00,67.9,64.9,30.05,North,349,0.0,3.1,90,0.00,,---,0.20,VWS V14.01,2013-02-15 20:13:00,
2013-02-15 15:15:00,67.9,65.0,30.05,NNW,343,0.0,0.0,90,0.00,,---,0.20,VWS V14.01,2013-02-15 20:15:00,
2013-02-15 15:17:00,67.9,65.0,30.05,NNW,343,0.0,0.0,90,0.00,,---,0.20,VWS V14.01,2013-02-15 20:17:00,
2013-02-15 15:18:00,67.8,64.9,30.05,NNW,343,0.0,0.0,90,0.00,,---,0.20,VWS V14.01,2013-02-15 20:18:00,
2013-02-15 15:20:00,67.9,65.1,30.05,NNW,343,0.0,0.0,91,0.00,,---,0.20,VWS V14.01,2013-02-15 20:20:00,
2013-02-15 15:22:00,68.0,65.2,30.05,NNW,343,0.0,0.0,91,0.00,,---,0.20,VWS V14.01,2013-02-15 20:22:00,
2013-02-15 15:23:00,67.8,65.0,30.05,NNW,343,0.0,0.0,91,0.00,,---,0.20,VWS V14.01,2013-02-15 20:23:00,
2013-02-15 15:25:00,67.9,65.1,30.05,NNW,343,0.0,0.0,91,0.00,,---,0.20,VWS V14.01,2013-02-15 20:25:00,
2013-02-15 15:27:00,67.9,65.1,30.05,NNW,343,0.0,0.0,91,0.00,,---,0.20,VWS V14.01,2013-02-15 20:27:00,
2013-02-15 15:28:00,68.0,65.3,30.05,NNW,343,0.0,0.0,91,0.00,,---,0.20,VWS V14.01,2013-02-15 20:28:00,
2013-02-15 15:29:00,68.0,65.2,30.05,NNW,343,0.0,0.0,91,0.00,,---,0.20,VWS V14.01,2013-02-15 20:29:00,
2013-02-15 15:30:00,68.0,65.2,30.05,NNW,343,0.0,0.0,91,0.00,,---,0.20,VWS V14.01,2013-02-15 20:30:00,
2013-02-15 15:32:00,68.2,65.4,30.05,NNW,343,0.0,0.0,91,0.00,,---,0.20,VWS V14.01,2013-02-15 20:32:00,
2013-02-15 15:33:00,68.1,65.3,30.05,NNW,343,0.0,0.0,91,0.00,,---,0.20,VWS V14.01,2013-02-15 20:33:00,
2013-02-15 15:34:00,68.0,65.2,30.05,NNW,343,0.0,0.0,91,0.00,,---,0.20,VWS V14.01,2013-02-15 20:34:00,
2013-02-15 15:36:00,68.0,65.2,30.05,NNW,343,0.0,0.0,91,0.00,,---,0.20,VWS V14.01,2013-02-15 20:36:00,
2013-02-15 15:37:00,68.1,65.3,30.05,NNW,343,0.0,0.0,91,0.00,,---,0.20,VWS V14.01,2013-02-15 20:37:00,
2013-02-15 15:38:00,68.0,65.2,30.05,NNW,343,0.0,0.0,91,0.00,,---,0.20,VWS V14.01,2013-02-15 20:38:00,
2013-02-15 15:39:00,68.0,65.2,30.05,NNW,343,0.0,0.0,91,0.00,,---,0.20,VWS V14.01,2013-02-15 20:39:00,
2013-02-15 15:41:00,67.9,65.0,30.05,NNW,343,0.0,0.0,90,0.00,,---,0.20,VWS V14.01,2013-02-15 20:41:00,
2013-02-15 15:42:00,67.8,64.9,30.04,NNW,343,0.0,0.0,90,0.00,,---,0.20,VWS V14.01,2013-02-15 20:42:00,
2013-02-15 15:43:00,67.8,64.9,30.04,NNW,343,0.0,0.0,90,0.00,,---,0.20,VWS V14.01,2013-02-15 20:43:00,
2013-02-15 15:44:00,67.8,65.0,30.05,NNW,343,0.0,0.0,91,0.00,,---,0.20,VWS V14.01,2013-02-15 20:44:00,
2013-02-15 15:46:00,67.4,64.6,30.05,NNW,343,0.0,0.0,91,0.00,,---,0.20,VWS V14.01,2013-02-15 20:46:00,
2013-02-15 15:47:00,67.5,64.7,30.05,NNW,343,0.0,0.0,91,0.00,,---,0.20,VWS V14.01,2013-02-15 20:47:00,
2013-02-15 15:48:00,67.3,64.5,30.05,NNW,343,0.0,0.0,91,0.00,,---,0.20,VWS V14.01,2013-02-15 20:48:00,
2013-02-15 15:49:00,67.3,64.5,30.05,NNW,343,0.0,0.0,91,0.00,,---,0.20,VWS V14.01,2013-02-15 20:49:00,
2013-02-15 15:51:00,67.3,64.6,30.05,NNW,343,0.0,0.0,91,0.00,,---,0.20,VWS V14.01,2013-02-15 20:51:00,
2013-02-15 15:52:00,67.3,64.6,30.04,NNW,343,0.0,0.0,91,0.00,,---,0.20,VWS V14.01,2013-02-15 20:52:00,
2013-02-15 15:53:00,67.1,64.4,30.04,NNW,343,0.0,0.0,91,0.00,,---,0.20,VWS V14.01,2013-02-15 20:53:00,
2013-02-15 15:54:00,67.2,64.5,30.04,NNW,343,0.0,0.0,91,0.00,,---,0.20,VWS V14.01,2013-02-15 20:54:00,
2013-02-15 15:56:00,67.5,64.9,30.04,NNW,343,0.0,0.0,91,0.00,,---,0.20,VWS V14.01,2013-02-15 20:56:00,
2013-02-15 15:57:00,67.4,64.7,30.05,NNW,343,0.0,0.0,91,0.00,,---,0.20,VWS V14.01,2013-02-15 20:57:00,
2013-02-15 15:59:00,67.4,64.7,30.05,NNW,343,0.0,0.0,91,0.00,,---,0.20,VWS V14.01,2013-02-15 20:59:00,
2013-02-15 16:01:00,67.6,65.0,30.05,NNW,343,0.0,0.0,91,0.00,,---,0.20,VWS V14.01,2013-02-15 21:01:00,
2013-02-15 16:02:00,67.8,65.1,30.05,NNW,343,0.0,0.0,91,0.00,,---,0.20,VWS V14.01,2013-02-15 21:02:00,
2013-02-15 16:03:00,67.7,65.0,30.05,NNW,343,0.0,0.0,91,0.00,,---,0.20,VWS V14.01,2013-02-15 21:03:00,
2013-02-15 16:04:00,67.7,65.0,30.05,NNW,343,0.0,0.0,91,0.00,,---,0.20,VWS V14.01,2013-02-15 21:04:00,
2013-02-15 16:06:00,67.7,64.9,30.05,NNW,343,0.0,0.0,91,0.00,,---,0.20,VWS V14.01,2013-02-15 21:06:00,
2013-02-15 16:07:00,67.5,64.8,30.05,NNW,343,0.0,0.0,91,0.00,,---,0.20,VWS V14.01,2013-02-15 21:07:00,
2013-02-15 16:09:00,67.7,64.9,30.05,NNW,343,0.0,0.0,91,0.00,,---,0.20,VWS V14.01,2013-02-15 21:09:00,
2013-02-15 16:11:00,67.5,64.8,30.05,NNW,343,0.0,0.0,91,0.00,,---,0.20,VWS V14.01,2013-02-15 21:11:00,
2013-02-15 16:12:00,67.4,64.7,30.05,NNW,343,0.0,0.0,91,0.00,,---,0.20,VWS V14.01,2013-02-15 21:12:00,
2013-02-15 16:14:00,67.4,64.7,30.05,NNW,343,0.0,0.0,91,0.00,,---,0.20,VWS V14.01,2013-02-15 21:14:00,
2013-02-15 16:17:00,67.1,64.3,30.05,NNW,343,0.0,0.0,91,0.00,,---,0.20,VWS V14.01,2013-02-15 21:17:00,
2013-02-15 16:19:00,67.1,64.4,30.05,NNW,343,0.0,0.0,91,0.00,,---,0.20,VWS V14.01,2013-02-15 21:19:00,
2013-02-15 16:22:00,67.2,64.6,30.05,NNW,343,0.0,0.0,91,0.00,,---,0.20,VWS V14.01,2013-02-15 21:22:00,
2013-02-15 16:24:00,67.1,64.5,30.05,NNW,332,1.2,4.2,91,0.00,,---,0.20,VWS V14.01,2013-02-15 21:24:00,
2013-02-15 16:27:00,67.1,64.4,30.05,NNW,328,0.0,0.0,91,0.00,,---,0.20,VWS V14.01,2013-02-15 21:27:00,
2013-02-15 16:29:00,67.1,64.4,30.05,WNW,297,0.0,0.0,91,0.00,,---,0.20,VWS V14.01,2013-02-15 21:29:00,
2013-02-15 16:32:00,67.0,64.4,30.05,WNW,297,0.0,0.0,91,0.00,,---,0.20,VWS V14.01,2013-02-15 21:32:00,
2013-02-15 16:33:00,67.0,64.4,30.05,WNW,297,0.0,0.0,91,0.00,,---,0.20,VWS V14.01,2013-02-15 21:33:00,
2013-02-15 16:34:00,67.1,64.6,30.05,WNW,297,0.0,0.0,92,0.00,,---,0.20,VWS V14.01,2013-02-15 21:34:00,
2013-02-15 16:37:00,67.1,64.5,30.05,WNW,297,0.0,0.0,91,0.00,,---,0.20,VWS V14.01,2013-02-15 21:37:00,
2013-02-15 16:38:00,67.1,64.5,30.06,WNW,297,0.0,0.0,91,0.00,,---,0.20,VWS V14.01,2013-02-15 21:38:00,
2013-02-15 16:39:00,67.2,64.6,30.06,NNW,339,0.0,0.0,91,0.00,,---,0.20,VWS V14.01,2013-02-15 21:39:00,
2013-02-15 16:42:00,66.9,64.3,30.06,NNW,339,0.0,0.0,91,0.00,,---,0.20,VWS V14.01,2013-02-15 21:42:00,
2013-02-15 16:43:00,67.0,64.4,30.06,NNW,339,0.0,0.0,91,0.00,,---,0.20,VWS V14.01,2013-02-15 21:43:00,
2013-02-15 16:44:00,67.1,64.6,30.05,NNW,339,0.0,0.0,92,0.00,,---,0.20,VWS V14.01,2013-02-15 21:44:00,
2013-02-15 16:47:00,67.0,64.5,30.05,NNW,339,0.0,0.0,92,0.00,,---,0.20,VWS V14.01,2013-02-15 21:47:00,
2013-02-15 16:48:00,67.0,64.5,30.06,NNE,21,0.0,1.8,92,0.00,,---,0.20,VWS V14.01,2013-02-15 21:48:00,
2013-02-15 16:49:00,66.9,64.3,30.06,NE,51,2.7,4.9,92,0.00,,---,0.20,VWS V14.01,2013-02-15 21:49:00,
2013-02-15 16:52:00,66.7,64.2,30.05,East,100,0.0,0.0,92,0.00,,---,0.20,VWS V14.01,2013-02-15 21:52:00,
2013-02-15 16:53:00,66.9,64.3,30.05,East,100,0.0,1.1,92,0.00,,---,0.20,VWS V14.01,2013-02-15 21:53:00,
2013-02-15 16:54:00,66.9,64.3,30.05,East,100,0.0,0.0,92,0.00,,---,0.20,VWS V14.01,2013-02-15 21:54:00,
2013-02-15 16:55:00,66.8,64.2,30.05,East,100,0.0,0.0,92,0.00,,---,0.20,VWS V14.01,2013-02-15 21:55:00,
2013-02-15 16:57:00,66.7,64.2,30.05,East,100,0.0,0.0,92,0.00,,---,0.20,VWS V14.01,2013-02-15 21:57:00,
2013-02-15 16:58:00,66.8,64.3,30.05,East,100,0.0,0.0,92,0.00,,---,0.20,VWS V14.01,2013-02-15 21:58:00,
2013-02-15 16:59:00,66.6,64.1,30.05,East,100,0.0,0.0,92,0.00,,---,0.20,VWS V14.01,2013-02-15 21:59:00,
2013-02-15 17:00:00,66.8,64.3,30.05,East,100,0.0,0.0,92,0.00,,---,0.20,VWS V14.01,2013-02-15 22:00:00,
2013-02-15 17:02:00,66.9,64.5,30.05,NW,311,0.4,1.2,92,0.00,,---,0.20,VWS V14.01,2013-02-15 22:02:00,
2013-02-15 17:03:00,66.8,64.3,30.06,NNW,333,1.1,2.2,92,0.00,,---,0.20,VWS V14.01,2013-02-15 22:03:00,
2013-02-15 17:04:00,66.8,64.3,30.06,NNW,333,0.0,0.0,92,0.00,,---,0.20,VWS V14.01,2013-02-15 22:04:00,
2013-02-15 17:05:00,66.9,64.5,30.06,NNW,333,0.0,0.0,92,0.00,,---,0.20,VWS V14.01,2013-02-15 22:05:00,
2013-02-15 17:07:00,66.8,64.4,30.07,NNW,333,0.0,0.0,92,0.00,,---,0.20,VWS V14.01,2013-02-15 22:07:00,
2013-02-15 17:08:00,66.9,64.5,30.06,NNW,333,0.0,0.0,92,0.00,,---,0.20,VWS V14.01,2013-02-15 22:08:00,
2013-02-15 17:10:00,66.8,64.4,30.06,NNE,15,0.0,1.0,92,0.00,,---,0.20,VWS V14.01,2013-02-15 22:10:00,
2013-02-15 17:12:00,66.7,64.3,30.06,NNW,328,4.8,6.0,92,0.00,,---,0.20,VWS V14.01,2013-02-15 22:12:00,
2013-02-15 17:13:00,66.4,64.0,30.06,NNW,333,3.7,6.1,92,0.00,,---,0.20,VWS V14.01,2013-02-15 22:13:00,
2013-02-15 17:15:00,66.2,63.7,30.06,ESE,111,0.4,4.7,92,0.00,,---,0.20,VWS V14.01,2013-02-15 22:15:00,
2013-02-15 17:17:00,66.0,63.5,30.06,NE,44,1.6,5.3,92,0.00,,---,0.20,VWS V14.01,2013-02-15 22:17:00,
2013-02-15 17:19:00,65.9,63.5,30.06,NW,325,3.9,4.7,92,0.00,,---,0.20,VWS V14.01,2013-02-15 22:19:00,
2013-02-15 17:20:00,65.7,63.3,30.06,NNW,328,5.3,6.3,92,0.00,,---,0.20,VWS V14.01,2013-02-15 22:20:00,
2013-02-15 17:21:00,65.9,63.5,30.06,NNE,13,1.5,6.2,92,0.00,,---,0.20,VWS V14.01,2013-02-15 22:21:00,
2013-02-15 17:22:00,65.6,63.2,30.06,NNW,342,0.0,1.1,92,0.00,,---,0.20,VWS V14.01,2013-02-15 22:22:00,
2013-02-15 17:24:00,65.6,63.3,30.06,NNE,14,0.0,2.5,92,0.00,,---,0.20,VWS V14.01,2013-02-15 22:24:00,
2013-02-15 17:25:00,65.6,63.3,30.06,NW,315,0.0,3.9,92,0.00,,---,0.20,VWS V14.01,2013-02-15 22:25:00,
2013-02-15 17:26:00,65.7,63.4,30.05,North,352,0.9,1.7,92,0.00,,---,0.20,VWS V14.01,2013-02-15 22:26:00,
2013-02-15 17:27:00,65.6,63.3,30.05,NNW,346,0.0,0.0,92,0.00,,---,0.20,VWS V14.01,2013-02-15 22:27:00,
2013-02-15 17:29:00,65.7,63.4,30.05,NNW,346,0.0,0.0,92,0.00,,---,0.20,VWS V14.01,2013-02-15 22:29:00,
2013-02-15 17:30:00,65.7,63.5,30.05,NNW,346,0.0,0.0,92,0.00,,---,0.20,VWS V14.01,2013-02-15 22:30:00,
2013-02-15 17:31:00,65.8,63.5,30.06,NNW,340,0.8,2.7,92,0.00,,---,0.20,VWS V14.01,2013-02-15 22:31:00,
2013-02-15 17:32:00,65.6,63.4,30.06,NW,318,3.9,4.7,92,0.00,,---,0.20,VWS V14.01,2013-02-15 22:32:00,
2013-02-15 17:34:00,65.6,63.4,30.06,East,98,0.0,3.5,92,0.00,,---,0.20,VWS V14.01,2013-02-15 22:34:00,
2013-02-15 17:35:00,65.7,63.5,30.05,East,98,0.0,0.0,92,0.00,,---,0.20,VWS V14.01,2013-02-15 22:35:00,
2013-02-15 17:36:00,65.7,63.5,30.05,East,98,0.0,0.3,92,0.00,,---,0.20,VWS V14.01,2013-02-15 22:36:00,
2013-02-15 17:37:00,65.6,63.4,30.05,East,98,0.0,0.0,92,0.00,,---,0.20,VWS V14.01,2013-02-15 22:37:00,
2013-02-15 17:39:00,65.6,63.3,30.05,East,98,0.0,0.0,92,0.00,,---,0.20,VWS V14.01,2013-02-15 22:39:00,
2013-02-15 17:40:00,65.6,63.4,30.05,NE,38,0.0,0.0,92,0.00,,---,0.20,VWS V14.01,2013-02-15 22:40:00,
2013-02-15 17:41:00,65.4,63.2,30.05,NE,38,0.0,0.0,92,0.00,,---,0.20,VWS V14.01,2013-02-15 22:41:00,
2013-02-15 17:42:00,65.4,63.2,30.05,NE,38,0.0,0.0,92,0.00,,---,0.20,VWS V14.01,2013-02-15 22:42:00,
2013-02-15 17:44:00,65.5,63.3,30.05,North,354,0.0,0.0,92,0.00,,---,0.20,VWS V14.01,2013-02-15 22:44:00,
2013-02-15 17:45:00,65.4,63.2,30.05,North,354,0.0,0.0,92,0.00,,---,0.20,VWS V14.01,2013-02-15 22:45:00,
2013-02-15 17:46:00,65.4,63.2,30.05,North,354,0.0,0.0,92,0.00,,---,0.20,VWS V14.01,2013-02-15 22:46:00,
2013-02-15 17:47:00,65.4,63.2,30.05,NW,322,0.0,1.6,92,0.00,,---,0.20,VWS V14.01,2013-02-15 22:47:00,
2013-02-15 17:49:00,65.6,63.4,30.05,NW,322,0.0,0.0,92,0.00,,---,0.20,VWS V14.01,2013-02-15 22:49:00,
2013-02-15 17:50:00,65.4,63.2,30.05,NNE,14,0.0,0.2,92,0.00,,---,0.20,VWS V14.01,2013-02-15 22:50:00,
2013-02-15 17:51:00,65.3,63.1,30.05,NNW,329,0.4,3.8,93,0.00,,---,0.20,VWS V14.01,2013-02-15 22:51:00,
2013-02-15 17:52:00,65.2,63.0,30.05,NNW,329,0.0,0.0,93,0.00,,---,0.20,VWS V14.01,2013-02-15 22:52:00,
2013-02-15 17:54:00,65.5,63.3,30.05,NNW,329,0.0,0.0,93,0.00,,---,0.20,VWS V14.01,2013-02-15 22:54:00,
2013-02-15 17:56:00,65.4,63.2,30.05,NNW,329,0.0,0.0,93,0.00,,---,0.20,VWS V14.01,2013-02-15 22:56:00,
2013-02-15 17:57:00,65.3,63.1,30.06,NNW,329,0.0,0.0,93,0.00,,---,0.20,VWS V14.01,2013-02-15 22:57:00,
2013-02-15 17:59:00,65.3,63.1,30.06,NW,315,0.0,0.9,93,0.00,,---,0.20,VWS V14.01,2013-02-15 22:59:00,
2013-02-15 18:01:00,65.2,63.1,30.06,North,352,0.0,0.0,93,0.00,,---,0.20,VWS V14.01,2013-02-15 23:01:00,
2013-02-15 18:03:00,65.2,63.1,30.06,NE,41,0.0,1.6,93,0.00,,---,0.20,VWS V14.01,2013-02-15 23:03:00,
2013-02-15 18:04:00,65.4,63.3,30.06,WNW,287,1.2,4.8,93,0.00,,---,0.20,VWS V14.01,2013-02-15 23:04:00,
2013-02-15 18:06:00,65.3,63.2,30.06,West,276,0.0,0.0,93,0.00,,---,0.20,VWS V14.01,2013-02-15 23:06:00,
2013-02-15 18:08:00,65.4,63.3,30.06,WNW,301,0.0,0.9,93,0.00,,---,0.20,VWS V14.01,2013-02-15 23:08:00,
2013-02-15 18:09:00,65.3,63.2,30.06,WNW,301,0.0,0.0,93,0.00,,---,0.20,VWS V14.01,2013-02-15 23:09:00,
2013-02-15 18:11:00,65.2,63.1,30.06,NNW,333,0.0,0.0,93,0.00,,---,0.20,VWS V14.01,2013-02-15 23:11:00,
2013-02-15 18:13:00,65.3,63.2,30.06,NNW,333,0.0,0.0,93,0.00,,---,0.20,VWS V14.01,2013-02-15 23:13:00,
2013-02-15 18:14:00,65.2,63.1,30.06,NNW,333,0.0,0.0,93,0.00,,---,0.20,VWS V14.01,2013-02-15 23:14:00,
2013-02-15 18:16:00,65.1,63.0,30.06,NNW,333,0.0,0.0,93,0.00,,---,0.20,VWS V14.01,2013-02-15 23:16:00,
2013-02-15 18:18:00,65.3,63.2,30.06,NNW,333,0.0,0.0,93,0.00,,---,0.20,VWS V14.01,2013-02-15 23:18:00,
2013-02-15 18:20:00,65.3,63.2,30.05,NNW,333,0.0,0.0,93,0.00,,---,0.20,VWS V14.01,2013-02-15 23:20:00,
2013-02-15 18:21:00,65.3,63.2,30.05,NNW,333,0.0,0.0,93,0.00,,---,0.20,VWS V14.01,2013-02-15 23:21:00,
2013-02-15 18:23:00,65.3,63.2,30.05,NNW,333,0.0,0.0,93,0.00,,---,0.20,VWS V14.01,2013-02-15 23:23:00,
2013-02-15 18:25:00,65.1,63.0,30.05,NNW,333,0.0,0.0,93,0.00,,---,0.20,VWS V14.01,2013-02-15 23:25:00,
2013-02-15 18:26:00,65.1,63.0,30.05,NNW,333,0.0,0.0,93,0.00,,---,0.20,VWS V14.01,2013-02-15 23:26:00,
2013-02-15 18:28:00,65.1,63.0,30.05,NNW,333,0.0,0.0,93,0.00,,---,0.20,VWS V14.01,2013-02-15 23:28:00,
2013-02-15 18:30:00,65.2,63.1,30.05,NNW,333,0.0,0.0,93,0.00,,---,0.20,VWS V14.01,2013-02-15 23:30:00,
2013-02-15 18:31:00,65.4,63.3,30.05,NNW,333,0.0,0.0,93,0.00,,---,0.20,VWS V14.01,2013-02-15 23:31:00,
2013-02-15 18:32:00,65.2,63.1,30.05,NNW,333,0.0,0.0,93,0.00,,---,0.20,VWS V14.01,2013-02-15 23:32:00,
2013-02-15 18:33:00,65.3,63.2,30.05,NNW,333,0.0,0.0,93,0.00,,---,0.20,VWS V14.01,2013-02-15 23:33:00,
2013-02-15 18:35:00,65.2,63.1,30.05,NNW,333,0.0,0.0,93,0.00,,---,0.20,VWS V14.01,2013-02-15 23:35:00,
2013-02-15 18:37:00,65.2,63.1,30.05,NNW,333,0.0,0.0,93,0.00,,---,0.20,VWS V14.01,2013-02-15 23:37:00,
2013-02-15 18:38:00,65.2,63.1,30.05,NNW,333,0.0,0.0,93,0.00,,---,0.20,VWS V14.01,2013-02-15 23:38:00,
2013-02-15 18:40:00,65.2,63.1,30.05,NNW,333,0.0,0.0,93,0.00,,---,0.20,VWS V14.01,2013-02-15 23:40:00,
2013-02-15 18:42:00,65.2,63.1,30.05,NNW,333,0.0,0.0,93,0.00,,---,0.20,VWS V14.01,2013-02-15 23:42:00,
2013-02-15 18:43:00,65.3,63.2,30.05,NNW,333,0.0,0.0,93,0.10,,---,0.30,VWS V14.01,2013-02-15 23:43:00,
2013-02-15 18:46:00,65.3,63.2,30.04,NNW,333,0.0,0.0,93,0.10,,---,0.30,VWS V14.01,2013-02-15 23:46:00,
2013-02-15 18:47:00,65.2,63.2,30.04,NNW,333,0.0,0.0,93,0.10,,---,0.30,VWS V14.01,2013-02-15 23:47:00,
2013-02-15 18:48:00,65.2,63.2,30.04,NNW,333,0.0,0.0,93,0.10,,---,0.30,VWS V14.01,2013-02-15 23:48:00,
2013-02-15 18:51:00,65.3,63.2,30.04,NNW,333,0.0,0.0,93,0.10,,---,0.30,VWS V14.01,2013-02-15 23:51:00,
2013-02-15 18:52:00,65.0,62.9,30.04,NNW,333,0.0,0.0,93,0.10,,---,0.30,VWS V14.01,2013-02-15 23:52:00,
2013-02-15 18:54:00,65.0,62.9,30.04,NNW,333,0.0,0.0,93,0.10,,---,0.30,VWS V14.01,2013-02-15 23:54:00,
2013-02-15 18:56:00,65.0,62.9,30.04,NNW,333,0.0,0.0,93,0.10,,---,0.30,VWS V14.01,2013-02-15 23:56:00,
2013-02-15 18:57:00,65.1,63.1,30.04,NNW,333,0.0,0.0,93,0.10,,---,0.30,VWS V14.01,2013-02-15 23:57:00,
2013-02-15 18:59:00,65.2,63.2,30.04,NNW,333,0.0,0.0,93,0.10,,---,0.30,VWS V14.01,2013-02-15 23:59:00,
2013-02-15 19:01:00,65.0,63.0,30.04,NNW,333,0.0,0.0,93,0.10,,---,0.30,VWS V14.01,2013-02-16 00:01:00,
2013-02-15 19:02:00,65.1,63.1,30.04,NNW,333,0.0,0.0,93,0.10,,---,0.30,VWS V14.01,2013-02-16 00:02:00,
2013-02-15 19:04:00,65.2,63.2,30.05,NNW,333,0.0,0.0,93,0.10,,---,0.30,VWS V14.01,2013-02-16 00:04:00,
2013-02-15 19:06:00,65.1,63.1,30.05,NNW,333,0.0,0.0,93,0.10,,---,0.30,VWS V14.01,2013-02-16 00:06:00,
2013-02-15 19:07:00,65.1,63.1,30.05,NNW,333,0.0,0.0,93,0.10,,---,0.30,VWS V14.01,2013-02-16 00:07:00,
2013-02-15 19:09:00,65.1,63.1,30.05,NNW,333,0.0,0.0,93,0.10,,---,0.30,VWS V14.01,2013-02-16 00:09:00,
2013-02-15 19:11:00,65.1,63.1,30.05,NNW,333,0.0,0.0,93,0.10,,---,0.30,VWS V14.01,2013-02-16 00:11:00,
2013-02-15 19:12:00,65.2,63.2,30.04,NNW,333,0.0,0.0,93,0.10,,---,0.30,VWS V14.01,2013-02-16 00:12:00,
2013-02-15 19:13:00,65.2,63.2,30.04,NNW,333,0.0,0.0,93,0.10,,---,0.30,VWS V14.01,2013-02-16 00:13:00,
2013-02-15 19:14:00,65.4,63.4,30.04,NNW,333,0.0,0.0,93,0.10,,---,0.30,VWS V14.01,2013-02-16 00:14:00,
2013-02-15 19:16:00,65.3,63.3,30.04,NNW,333,0.0,0.0,93,0.10,,---,0.30,VWS V14.01,2013-02-16 00:16:00,
2013-02-15 19:17:00,65.3,63.3,30.04,NNW,333,0.0,0.0,93,0.10,,---,0.30,VWS V14.01,2013-02-16 00:17:00,
2013-02-15 19:18:00,65.3,63.3,30.04,NNW,333,0.0,0.0,93,0.10,,---,0.30,VWS V14.01,2013-02-16 00:18:00,
2013-02-15 19:19:00,65.4,63.4,30.04,NNW,333,0.0,0.0,93,0.10,,---,0.30,VWS V14.01,2013-02-16 00:19:00,
2013-02-15 19:21:00,65.3,63.3,30.05,NNW,333,0.0,0.0,93,0.10,,---,0.30,VWS V14.01,2013-02-16 00:21:00,
2013-02-15 19:22:00,65.3,63.3,30.05,NNW,333,0.0,0.0,93,0.10,,---,0.30,VWS V14.01,2013-02-16 00:22:00,
2013-02-15 19:23:00,65.3,63.3,30.05,NNW,333,0.0,0.0,93,0.10,,---,0.30,VWS V14.01,2013-02-16 00:23:00,
2013-02-15 19:24:00,65.3,63.3,30.05,NNW,333,0.0,0.0,93,0.10,,---,0.30,VWS V14.01,2013-02-16 00:24:00,
2013-02-15 19:26:00,65.5,63.5,30.04,NNW,333,0.0,0.0,93,0.10,,---,0.30,VWS V14.01,2013-02-16 00:26:00,
2013-02-15 19:27:00,65.3,63.3,30.04,NNW,333,0.0,0.0,93,0.10,,---,0.30,VWS V14.01,2013-02-16 00:27:00,
2013-02-15 19:28:00,65.2,63.2,30.04,NNW,333,0.0,0.0,93,0.10,,---,0.30,VWS V14.01,2013-02-16 00:28:00,
2013-02-15 19:29:00,65.4,63.4,30.04,NNW,333,0.0,0.0,93,0.10,,---,0.30,VWS V14.01,2013-02-16 00:29:00,
2013-02-15 19:31:00,65.4,63.4,30.04,NNW,333,0.0,0.0,93,0.10,,---,0.30,VWS V14.01,2013-02-16 00:31:00,
2013-02-15 19:32:00,65.3,63.3,30.04,NNW,333,0.0,0.0,93,0.10,,---,0.30,VWS V14.01,2013-02-16 00:32:00,
2013-02-15 19:33:00,65.2,63.2,30.04,NNW,333,0.0,0.0,93,0.10,,---,0.30,VWS V14.01,2013-02-16 00:33:00,
2013-02-15 19:34:00,65.5,63.5,30.05,NNW,333,0.0,0.0,93,0.10,,---,0.30,VWS V14.01,2013-02-16 00:34:00,
2013-02-15 19:36:00,65.2,63.3,30.05,NW,318,4.2,5.3,94,0.10,,---,0.30,VWS V14.01,2013-02-16 00:36:00,
2013-02-15 19:37:00,65.2,63.2,30.05,NNE,14,0.9,3.8,93,0.10,,---,0.30,VWS V14.01,2013-02-16 00:37:00,
2013-02-15 19:38:00,65.4,63.5,30.04,NNE,14,0.0,0.0,93,0.10,,---,0.30,VWS V14.01,2013-02-16 00:38:00,
2013-02-15 19:39:00,65.3,63.3,30.04,NNE,14,0.0,0.0,93,0.10,,---,0.30,VWS V14.01,2013-02-16 00:39:00,
2013-02-15 19:41:00,65.2,63.2,30.04,NNE,20,0.0,0.0,93,0.10,,---,0.30,VWS V14.01,2013-02-16 00:41:00,
2013-02-15 19:42:00,65.1,63.2,30.04,NNE,20,0.0,0.0,93,0.00,,---,0.30,VWS V14.01,2013-02-16 00:42:00,
2013-02-15 19:43:00,65.4,63.5,30.04,NNE,20,0.0,0.0,93,0.00,,---,0.30,VWS V14.01,2013-02-16 00:43:00,
2013-02-15 19:44:00,65.3,63.3,30.04,NNE,20,0.0,0.0,93,0.00,,---,0.30,VWS V14.01,2013-02-16 00:44:00,
2013-02-15 19:46:00,65.1,63.2,30.04,NNE,20,0.0,0.0,94,0.00,,---,0.30,VWS V14.01,2013-02-16 00:46:00,
2013-02-15 19:47:00,65.2,63.3,30.04,NNE,20,0.0,0.0,94,0.00,,---,0.30,VWS V14.01,2013-02-16 00:47:00,
2013-02-15 19:48:00,65.2,63.3,30.04,NNE,20,0.0,0.0,94,0.00,,---,0.30,VWS V14.01,2013-02-16 00:48:00,
2013-02-15 19:49:00,65.3,63.4,30.04,NNE,20,0.0,0.0,94,0.00,,---,0.30,VWS V14.01,2013-02-16 00:49:00,
2013-02-15 19:51:00,65.3,63.4,30.03,NNE,20,0.0,0.0,94,0.00,,---,0.30,VWS V14.01,2013-02-16 00:51:00,
2013-02-15 19:52:00,65.2,63.3,30.03,NNE,27,1.4,1.4,94,0.00,,---,0.30,VWS V14.01,2013-02-16 00:52:00,
2013-02-15 19:53:00,65.1,63.2,30.03,NE,38,0.0,1.4,94,0.00,,---,0.30,VWS V14.01,2013-02-16 00:53:00,
2013-02-15 19:54:00,65.1,63.2,30.03,NE,39,0.0,0.0,94,0.00,,---,0.30,VWS V14.01,2013-02-16 00:54:00,
2013-02-15 19:56:00,65.0,63.1,30.03,NNW,328,0.8,1.7,94,0.00,,---,0.30,VWS V14.01,2013-02-16 00:56:00,
2013-02-15 19:58:00,65.2,63.3,30.03,NNW,328,0.0,0.0,94,0.00,,---,0.30,VWS V14.01,2013-02-16 00:58:00,
2013-02-15 19:59:00,65.0,63.1,30.03,NNW,328,0.0,0.0,94,0.00,,---,0.30,VWS V14.01,2013-02-16 00:59:00,
2013-02-15 20:01:00,65.1,63.2,30.03,East,87,0.8,2.1,94,0.00,,---,0.30,VWS V14.01,2013-02-16 01:01:00,
2013-02-15 20:03:00,64.9,63.0,30.03,East,87,0.0,0.0,94,0.00,,---,0.30,VWS V14.01,2013-02-16 01:03:00,
2013-02-15 20:05:00,65.1,63.2,30.03,East,87,0.0,0.0,94,0.00,,---,0.30,VWS V14.01,2013-02-16 01:05:00,
2013-02-15 20:07:00,64.9,63.0,30.03,East,87,0.0,0.0,94,0.00,,---,0.30,VWS V14.01,2013-02-16 01:07:00,
2013-02-15 20:08:00,64.9,63.0,30.04,East,87,0.0,0.0,94,0.00,,---,0.30,VWS V14.01,2013-02-16 01:08:00,
2013-02-15 20:10:00,64.8,63.0,30.04,NNW,342,0.0,0.0,94,0.00,,---,0.30,VWS V14.01,2013-02-16 01:10:00,
2013-02-15 20:12:00,64.8,62.9,30.04,NNW,342,0.0,0.0,94,0.00,,---,0.30,VWS V14.01,2013-02-16 01:12:00,
2013-02-15 20:13:00,64.8,63.0,30.04,NNW,342,0.0,0.0,94,0.00,,---,0.30,VWS V14.01,2013-02-16 01:13:00,
2013-02-15 20:15:00,64.9,63.0,30.04,NNW,342,0.0,0.0,94,0.00,,---,0.30,VWS V14.01,2013-02-16 01:15:00,
2013-02-15 20:17:00,64.9,63.0,30.04,NNW,342,0.0,0.0,94,0.00,,---,0.30,VWS V14.01,2013-02-16 01:17:00,
2013-02-15 20:18:00,64.9,63.0,30.05,NNW,342,0.0,0.0,94,0.00,,---,0.30,VWS V14.01,2013-02-16 01:18:00,
2013-02-15 20:20:00,65.0,63.1,30.04,NNW,342,0.0,0.0,94,0.00,,---,0.30,VWS V14.01,2013-02-16 01:20:00,
2013-02-15 20:22:00,64.9,63.0,30.05,NNW,342,0.0,0.0,94,0.00,,---,0.30,VWS V14.01,2013-02-16 01:22:00,
2013-02-15 20:23:00,64.8,63.0,30.05,NNW,342,0.0,0.0,94,0.00,,---,0.30,VWS V14.01,2013-02-16 01:23:00,
2013-02-15 20:24:00,65.0,63.1,30.05,NNW,342,0.0,0.0,94,0.00,,---,0.30,VWS V14.01,2013-02-16 01:24:00,
2013-02-15 20:26:00,64.9,63.0,30.05,NNW,342,0.0,0.0,94,0.00,,---,0.30,VWS V14.01,2013-02-16 01:26:00,
2013-02-15 20:27:00,64.8,63.0,30.05,NNW,342,0.0,0.0,94,0.00,,---,0.30,VWS V14.01,2013-02-16 01:27:00,
2013-02-15 20:28:00,65.0,63.1,30.05,NNW,342,0.0,0.0,94,0.00,,---,0.30,VWS V14.01,2013-02-16 01:28:00,
2013-02-15 20:29:00,64.9,63.0,30.06,NNW,342,0.0,0.0,94,0.00,,---,0.30,VWS V14.01,2013-02-16 01:29:00,
2013-02-15 20:31:00,64.8,63.0,30.06,NNW,342,0.0,0.0,94,0.00,,---,0.30,VWS V14.01,2013-02-16 01:31:00,
2013-02-15 20:32:00,65.0,63.2,30.05,NNW,342,0.0,0.0,94,0.00,,---,0.30,VWS V14.01,2013-02-16 01:32:00,
2013-02-15 20:33:00,65.1,63.3,30.05,NNW,342,0.0,0.0,94,0.00,,---,0.30,VWS V14.01,2013-02-16 01:33:00,
2013-02-15 20:34:00,64.9,63.1,30.05,NNW,342,0.0,0.0,94,0.00,,---,0.30,VWS V14.01,2013-02-16 01:34:00,
2013-02-15 20:36:00,65.0,63.2,30.05,NNW,342,0.0,0.0,94,0.00,,---,0.30,VWS V14.01,2013-02-16 01:36:00,
2013-02-15 20:37:00,65.0,63.2,30.05,NNW,342,0.0,0.0,94,0.00,,---,0.30,VWS V14.01,2013-02-16 01:37:00,
2013-02-15 20:38:00,65.0,63.2,30.05,NNW,342,0.0,0.0,94,0.00,,---,0.30,VWS V14.01,2013-02-16 01:38:00,
2013-02-15 20:39:00,65.0,63.2,30.05,NNW,342,0.0,0.0,94,0.00,,---,0.30,VWS V14.01,2013-02-16 01:39:00,
2013-02-15 20:41:00,65.1,63.3,30.05,NNW,342,0.0,0.0,94,0.00,,---,0.30,VWS V14.01,2013-02-16 01:41:00,
2013-02-15 20:42:00,65.2,63.4,30.05,NNW,342,0.0,0.0,94,0.00,,---,0.30,VWS V14.01,2013-02-16 01:42:00,
2013-02-15 20:44:00,65.0,63.1,30.06,NNW,342,0.0,0.0,94,0.00,,---,0.30,VWS V14.01,2013-02-16 01:44:00,
2013-02-15 20:46:00,65.0,63.1,30.06,NNW,342,0.0,0.0,94,0.00,,---,0.30,VWS V14.01,2013-02-16 01:46:00,
2013-02-15 20:47:00,65.1,63.2,30.06,NNW,342,0.0,0.0,94,0.00,,---,0.30,VWS V14.01,2013-02-16 01:47:00,
2013-02-15 20:49:00,64.8,63.0,30.06,NNW,342,0.0,0.0,94,0.00,,---,0.30,VWS V14.01,2013-02-16 01:49:00,
2013-02-15 20:50:00,64.9,63.1,30.06,NNW,342,0.0,0.0,94,0.00,,---,0.30,VWS V14.01,2013-02-16 01:50:00,
2013-02-15 20:51:00,65.0,63.2,30.06,NNW,342,0.0,0.0,94,0.00,,---,0.30,VWS V14.01,2013-02-16 01:51:00,
2013-02-15 20:52:00,64.9,63.1,30.06,NNW,342,0.0,0.0,94,0.00,,---,0.30,VWS V14.01,2013-02-16 01:52:00,
2013-02-15 20:54:00,65.1,63.3,30.06,NNW,342,0.0,0.0,94,0.00,,---,0.30,VWS V14.01,2013-02-16 01:54:00,
2013-02-15 20:55:00,65.0,63.2,30.06,NNW,342,0.0,0.0,94,0.00,,---,0.30,VWS V14.01,2013-02-16 01:55:00,
2013-02-15 20:57:00,65.0,63.2,30.06,NNW,342,0.0,0.0,94,0.00,,---,0.30,VWS V14.01,2013-02-16 01:57:00,
2013-02-15 20:59:00,64.9,63.1,30.06,NNW,342,0.0,0.0,94,0.00,,---,0.30,VWS V14.01,2013-02-16 01:59:00,
2013-02-15 21:00:00,65.0,63.2,30.06,NNW,342,0.0,0.0,94,0.00,,---,0.30,VWS V14.01,2013-02-16 02:00:00,
2013-02-15 21:02:00,64.9,63.1,30.06,NNW,342,0.0,0.0,94,0.00,,---,0.30,VWS V14.01,2013-02-16 02:02:00,
2013-02-15 21:04:00,65.0,63.2,30.07,NNW,342,0.0,0.0,94,0.00,,---,0.30,VWS V14.01,2013-02-16 02:04:00,
2013-02-15 21:05:00,65.0,63.2,30.07,NNW,342,0.0,0.0,94,0.00,,---,0.30,VWS V14.01,2013-02-16 02:05:00,
2013-02-15 21:07:00,64.8,63.0,30.07,NNW,342,0.0,0.0,94,0.00,,---,0.30,VWS V14.01,2013-02-16 02:07:00,
2013-02-15 21:09:00,65.1,63.3,30.07,NNW,342,0.0,0.0,94,0.00,,---,0.30,VWS V14.01,2013-02-16 02:09:00,
2013-02-15 21:10:00,65.0,63.2,30.06,NNW,342,0.0,0.0,94,0.00,,---,0.30,VWS V14.01,2013-02-16 02:10:00,
2013-02-15 21:12:00,65.1,63.3,30.06,NNW,342,0.0,0.0,94,0.00,,---,0.30,VWS V14.01,2013-02-16 02:12:00,
2013-02-15 21:13:00,65.1,63.3,30.06,NNW,342,0.0,0.0,94,0.00,,---,0.30,VWS V14.01,2013-02-16 02:13:00,
2013-02-15 21:14:00,65.1,63.3,30.06,NNW,342,0.0,0.0,94,0.00,,---,0.30,VWS V14.01,2013-02-16 02:14:00,
2013-02-15 21:15:00,65.1,63.3,30.07,NNW,342,0.0,0.0,94,0.00,,---,0.30,VWS V14.01,2013-02-16 02:15:00,
2013-02-15 21:17:00,65.0,63.2,30.07,NNW,342,0.0,0.0,94,0.00,,---,0.30,VWS V14.01,2013-02-16 02:17:00,
2013-02-15 21:18:00,65.1,63.3,30.07,NNW,342,0.0,0.0,94,0.00,,---,0.30,VWS V14.01,2013-02-16 02:18:00,
2013-02-15 21:19:00,65.0,63.2,30.06,NNW,342,0.0,0.0,94,0.00,,---,0.30,VWS V14.01,2013-02-16 02:19:00,
2013-02-15 21:20:00,65.0,63.2,30.06,NNW,342,0.0,0.0,94,0.00,,---,0.30,VWS V14.01,2013-02-16 02:20:00,
2013-02-15 21:23:00,65.1,63.3,30.07,NNW,342,0.0,0.0,94,0.00,,---,0.30,VWS V14.01,2013-02-16 02:23:00,
2013-02-15 21:24:00,64.9,63.1,30.07,NNW,342,0.0,0.0,94,0.00,,---,0.30,VWS V14.01,2013-02-16 02:24:00,
2013-02-15 21:25:00,65.0,63.2,30.07,NNW,342,0.0,0.0,94,0.00,,---,0.30,VWS V14.01,2013-02-16 02:25:00,
2013-02-15 21:28:00,64.9,63.1,30.07,NNW,342,0.0,0.0,94,0.00,,---,0.30,VWS V14.01,2013-02-16 02:28:00,
2013-02-15 21:29:00,65.0,63.2,30.06,NNW,342,0.0,0.0,94,0.00,,---,0.30,VWS V14.01,2013-02-16 02:29:00,
2013-02-15 21:30:00,65.0,63.2,30.06,NNW,342,0.0,0.0,94,0.00,,---,0.30,VWS V14.01,2013-02-16 02:30:00,
2013-02-15 21:33:00,65.0,63.2,30.07,NNW,342,0.0,0.0,94,0.00,,---,0.30,VWS V14.01,2013-02-16 02:33:00,
2013-02-15 21:34:00,65.1,63.3,30.06,NNW,342,0.0,0.0,94,0.00,,---,0.30,VWS V14.01,2013-02-16 02:34:00,
2013-02-15 21:35:00,64.8,63.0,30.07,NNW,342,0.0,0.0,94,0.00,,---,0.30,VWS V14.01,2013-02-16 02:35:00,
2013-02-15 21:38:00,65.0,63.2,30.06,NNW,342,0.0,0.0,94,0.00,,---,0.30,VWS V14.01,2013-02-16 02:38:00,
2013-02-15 21:39:00,65.1,63.3,30.06,NNW,342,0.0,0.0,94,0.00,,---,0.30,VWS V14.01,2013-02-16 02:39:00,
2013-02-15 21:40:00,65.0,63.3,30.06,NNW,342,0.0,0.0,94,0.00,,---,0.30,VWS V14.01,2013-02-16 02:40:00,
2013-02-15 21:43:00,65.0,63.2,30.07,NNW,342,0.0,0.0,94,0.00,,---,0.30,VWS V14.01,2013-02-16 02:43:00,
2013-02-15 21:44:00,64.8,63.0,30.07,NNW,342,0.0,0.0,94,0.00,,---,0.30,VWS V14.01,2013-02-16 02:44:00,
2013-02-15 21:45:00,65.0,63.3,30.07,NNW,342,0.0,0.0,94,0.00,,---,0.30,VWS V14.01,2013-02-16 02:45:00,
2013-02-15 21:48:00,64.9,63.2,30.06,NNW,342,0.0,0.0,94,0.00,,---,0.30,VWS V14.01,2013-02-16 02:48:00,
2013-02-15 21:49:00,64.7,63.0,30.06,NNW,342,0.0,0.0,94,0.00,,---,0.30,VWS V14.01,2013-02-16 02:49:00,
2013-02-15 21:50:00,64.8,63.1,30.06,NNW,342,0.0,0.0,94,0.00,,---,0.30,VWS V14.01,2013-02-16 02:50:00,
2013-02-15 21:53:00,64.8,63.1,30.06,NNW,342,0.0,0.0,94,0.00,,---,0.30,VWS V14.01,2013-02-16 02:53:00,
2013-02-15 21:54:00,64.7,63.0,30.06,NNW,342,0.0,0.0,94,0.00,,---,0.30,VWS V14.01,2013-02-16 02:54:00,
2013-02-15 21:55:00,64.7,63.0,30.06,NNW,342,0.0,0.0,94,0.00,,---,0.30,VWS V14.01,2013-02-16 02:55:00,
2013-02-15 21:58:00,64.8,63.1,30.05,NNW,342,0.0,0.0,94,0.00,,---,0.30,VWS V14.01,2013-02-16 02:58:00,
2013-02-15 21:59:00,64.6,62.9,30.05,NNW,342,0.0,0.0,94,0.00,,---,0.30,VWS V14.01,2013-02-16 02:59:00,
2013-02-15 22:00:00,64.9,63.2,30.06,NNW,342,0.0,0.0,94,0.00,,---,0.30,VWS V14.01,2013-02-16 03:00:00,
2013-02-15 22:03:00,64.8,63.1,30.06,NNW,342,0.0,0.0,94,0.00,,---,0.30,VWS V14.01,2013-02-16 03:03:00,
2013-02-15 22:04:00,64.7,63.0,30.06,NNW,342,0.0,0.0,94,0.00,,---,0.30,VWS V14.01,2013-02-16 03:04:00,
2013-02-15 22:05:00,64.7,63.0,30.06,NNW,342,0.0,0.0,94,0.00,,---,0.30,VWS V14.01,2013-02-16 03:05:00,
2013-02-15 22:09:00,64.7,63.0,30.05,NNW,342,0.0,0.0,94,0.00,,---,0.30,VWS V14.01,2013-02-16 03:09:00,
2013-02-15 22:10:00,64.7,63.0,30.06,NNW,342,0.0,0.0,94,0.00,,---,0.30,VWS V14.01,2013-02-16 03:10:00,
2013-02-15 22:14:00,64.6,62.9,30.06,NNW,342,0.0,0.0,94,0.00,,---,0.30,VWS V14.01,2013-02-16 03:14:00,
2013-02-15 22:15:00,64.7,63.0,30.06,NNW,342,0.0,0.0,94,0.00,,---,0.30,VWS V14.01,2013-02-16 03:15:00,
2013-02-15 22:19:00,64.7,63.0,30.06,NNW,342,0.0,0.0,94,0.00,,---,0.30,VWS V14.01,2013-02-16 03:19:00,
2013-02-15 22:20:00,64.6,62.9,30.06,NNW,342,0.0,0.0,94,0.00,,---,0.30,VWS V14.01,2013-02-16 03:20:00,
2013-02-15 22:24:00,64.7,63.0,30.06,NNW,342,0.0,0.0,94,0.00,,---,0.30,VWS V14.01,2013-02-16 03:24:00,
2013-02-15 22:25:00,64.7,63.1,30.06,NNW,342,0.0,0.0,94,0.00,,---,0.30,VWS V14.01,2013-02-16 03:25:00,
2013-02-15 22:29:00,64.7,63.1,30.06,NNW,342,0.0,0.0,94,0.00,,---,0.30,VWS V14.01,2013-02-16 03:29:00,
2013-02-15 22:30:00,64.6,63.0,30.06,NNW,342,0.0,0.0,94,0.00,,---,0.30,VWS V14.01,2013-02-16 03:30:00,
2013-02-15 22:31:00,64.6,63.0,30.06,NNW,342,0.0,0.0,94,0.00,,---,0.30,VWS V14.01,2013-02-16 03:31:00,
2013-02-15 22:34:00,64.7,63.1,30.06,NNW,342,0.0,0.0,94,0.00,,---,0.30,VWS V14.01,2013-02-16 03:34:00,
2013-02-15 22:35:00,64.7,63.1,30.06,NNW,342,0.0,0.0,94,0.00,,---,0.30,VWS V14.01,2013-02-16 03:35:00,
2013-02-15 22:36:00,64.8,63.2,30.06,NNW,342,0.0,0.0,94,0.00,,---,0.30,VWS V14.01,2013-02-16 03:36:00,
2013-02-15 22:39:00,64.7,63.1,30.06,NNW,342,0.0,0.0,94,0.00,,---,0.30,VWS V14.01,2013-02-16 03:39:00,
2013-02-15 22:40:00,64.8,63.2,30.06,NNW,342,0.0,0.0,94,0.00,,---,0.30,VWS V14.01,2013-02-16 03:40:00,
2013-02-15 22:41:00,64.7,63.1,30.06,NNW,342,0.0,0.0,94,0.00,,---,0.30,VWS V14.01,2013-02-16 03:41:00,
2013-02-15 22:45:00,64.8,63.2,30.06,NNW,342,0.0,0.0,94,0.00,,---,0.30,VWS V14.01,2013-02-16 03:45:00,
2013-02-15 22:46:00,64.7,63.1,30.06,NNW,342,0.0,0.0,94,0.00,,---,0.30,VWS V14.01,2013-02-16 03:46:00,
2013-02-15 22:50:00,64.6,63.0,30.05,NNW,342,0.0,0.0,94,0.00,,---,0.30,VWS V14.01,2013-02-16 03:50:00,
2013-02-15 22:51:00,64.8,63.2,30.05,NNW,342,0.0,0.0,94,0.00,,---,0.30,VWS V14.01,2013-02-16 03:51:00,
2013-02-15 22:55:00,64.6,63.0,30.05,NNW,342,0.0,0.0,94,0.00,,---,0.30,VWS V14.01,2013-02-16 03:55:00,
2013-02-15 22:56:00,64.7,63.1,30.05,NNW,342,0.0,0.0,94,0.00,,---,0.30,VWS V14.01,2013-02-16 03:56:00,
2013-02-15 23:00:00,64.6,63.0,30.05,NNW,342,0.0,0.0,94,0.00,,---,0.30,VWS V14.01,2013-02-16 04:00:00,
2013-02-15 23:01:00,64.6,63.0,30.05,NNW,342,0.0,0.0,94,0.00,,---,0.30,VWS V14.01,2013-02-16 04:01:00,
2013-02-15 23:05:00,64.7,63.1,30.05,NW,319,0.0,3.9,94,0.00,,---,0.30,VWS V14.01,2013-02-16 04:05:00,
2013-02-15 23:06:00,64.6,63.0,30.04,NW,323,1.1,4.5,95,0.00,,---,0.30,VWS V14.01,2013-02-16 04:06:00,
2013-02-15 23:10:00,64.3,62.7,30.04,NW,304,3.3,3.4,95,0.00,,---,0.30,VWS V14.01,2013-02-16 04:10:00,
2013-02-15 23:11:00,64.6,63.0,30.04,NNW,346,2.0,3.1,95,0.00,,---,0.30,VWS V14.01,2013-02-16 04:11:00,
2013-02-15 23:15:00,64.5,62.9,30.04,WNW,285,1.8,1.8,95,0.00,,---,0.30,VWS V14.01,2013-02-16 04:15:00,
2013-02-15 23:16:00,64.6,63.0,30.04,NW,322,1.4,2.3,95,0.00,,---,0.30,VWS V14.01,2013-02-16 04:16:00,
2013-02-15 23:20:00,64.3,62.8,30.04,NNW,346,0.0,0.0,95,0.00,,---,0.30,VWS V14.01,2013-02-16 04:20:00,
2013-02-15 23:21:00,64.6,63.0,30.04,NNW,346,0.0,0.0,95,0.00,,---,0.30,VWS V14.01,2013-02-16 04:21:00,
2013-02-15 23:22:00,64.5,62.9,30.04,NNW,346,0.0,0.0,95,0.00,,---,0.30,VWS V14.01,2013-02-16 04:22:00,
2013-02-15 23:25:00,64.6,63.0,30.04,WNW,283,1.2,2.5,95,0.00,,---,0.30,VWS V14.01,2013-02-16 04:25:00,
2013-02-15 23:26:00,64.3,62.8,30.05,NW,308,1.1,2.5,95,0.00,,---,0.30,VWS V14.01,2013-02-16 04:26:00,
2013-02-15 23:27:00,64.4,62.9,30.05,WNW,295,1.2,1.9,95,0.00,,---,0.30,VWS V14.01,2013-02-16 04:27:00,
2013-02-15 23:30:00,64.3,62.8,30.04,NW,309,0.0,0.0,95,0.00,,---,0.30,VWS V14.01,2013-02-16 04:30:00,
2013-02-15 23:31:00,64.3,62.8,30.04,NW,309,0.6,0.6,95,0.00,,---,0.30,VWS V14.01,2013-02-16 04:31:00,
2013-02-15 23:32:00,64.4,62.8,30.04,NW,309,0.0,0.6,95,0.00,,---,0.30,VWS V14.01,2013-02-16 04:32:00,
2013-02-15 23:36:00,64.3,62.8,30.04,North,359,2.6,2.6,95,0.00,,---,0.30,VWS V14.01,2013-02-16 04:36:00,
2013-02-15 23:37:00,64.4,62.8,30.04,NNE,18,0.4,0.6,95,0.00,,---,0.30,VWS V14.01,2013-02-16 04:37:00,
2013-02-15 23:41:00,64.2,62.7,30.04,NNE,18,0.0,0.0,95,0.00,,---,0.30,VWS V14.01,2013-02-16 04:41:00,
2013-02-15 23:42:00,64.6,63.0,30.04,NNE,18,0.0,0.0,95,0.00,,---,0.30,VWS V14.01,2013-02-16 04:42:00,
2013-02-15 23:46:00,64.2,62.7,30.04,NNW,329,2.4,2.4,95,0.00,,---,0.30,VWS V14.01,2013-02-16 04:46:00,